<?xml version="1.0" encoding="UTF-8" standalone="no" ?><gpx xmlns="http://www.topografix.com/GPX/1/1" xmlns:gpxx="http://www.garmin.com/xmlschemas/GpxExtensions/v3" xmlns:wptx1="http://www.garmin.com/xmlschemas/WaypointExtension/v1" xmlns:gpxtpx="http://www.garmin.com/xmlschemas/TrackPointExtension/v1" creator="GuideVTT.com" version="1.1" xmlns:xsi="http://www.w3.org/2001/XMLSchema-instance" xsi:schemaLocation="http://www.topografix.com/GPX/1/1 http://www.topografix.com/GPX/1/1/gpx.xsd http://www.garmin.com/xmlschemas/GpxExtensions/v3 http://www8.garmin.com/xmlschemas/GpxExtensionsv3.xsd http://www.garmin.com/xmlschemas/WaypointExtension/v1 http://www8.garmin.com/xmlschemas/WaypointExtensionv1.xsd http://www.garmin.com/xmlschemas/TrackPointExtension/v1 http://www.garmin.com/xmlschemas/TrackPointExtensionv1.xsd">
<metadata><link href="http://www.garmin.com"><text>Garmin International</text></link><time>2013-06-22T15:13:50Z</time></metadata>
<trk><name>rp2016_22.gpx</name><extensions><gpxx:TrackExtension><gpxx:DisplayColor>Cyan</gpxx:DisplayColor></gpxx:TrackExtension></extensions><trkseg>
<trkpt lat="46.48905" lon="6.72832"><ele>398.4</ele><time>2016-07-01T13:25:07Z</time></trkpt>
<trkpt lat="46.48913" lon="6.72858"><ele>403.6</ele><time>2016-07-01T13:25:14Z</time></trkpt>
<trkpt lat="46.48915" lon="6.72855"><ele>395.6</ele><time>2016-07-01T13:25:17Z</time></trkpt>
<trkpt lat="46.48923" lon="6.72864"><ele>389.4</ele><time>2016-07-01T13:25:19Z</time></trkpt>
<trkpt lat="46.48927" lon="6.7289"><ele>390.4</ele><time>2016-07-01T13:25:25Z</time></trkpt>
<trkpt lat="46.48932" lon="6.72907"><ele>394</ele><time>2016-07-01T13:25:29Z</time></trkpt>
<trkpt lat="46.48935" lon="6.72914"><ele>389.6</ele><time>2016-07-01T13:25:31Z</time></trkpt>
<trkpt lat="46.48934" lon="6.72913"><ele>393.2</ele><time>2016-07-01T13:25:32Z</time></trkpt>
<trkpt lat="46.48936" lon="6.72924"><ele>397.8</ele><time>2016-07-01T13:25:34Z</time></trkpt>
<trkpt lat="46.48945" lon="6.72935"><ele>390.8</ele><time>2016-07-01T13:25:37Z</time></trkpt>
<trkpt lat="46.48945" lon="6.72945"><ele>394.2</ele><time>2016-07-01T13:25:39Z</time></trkpt>
<trkpt lat="46.48954" lon="6.72969"><ele>396.2</ele><time>2016-07-01T13:25:44Z</time></trkpt>
<trkpt lat="46.48964" lon="6.72997"><ele>397.4</ele><time>2016-07-01T13:25:49Z</time></trkpt>
<trkpt lat="46.48974" lon="6.73023"><ele>397.8</ele><time>2016-07-01T13:25:53Z</time></trkpt>
<trkpt lat="46.48984" lon="6.73049"><ele>398</ele><time>2016-07-01T13:25:57Z</time></trkpt>
<trkpt lat="46.48993" lon="6.73076"><ele>398.6</ele><time>2016-07-01T13:26:01Z</time></trkpt>
<trkpt lat="46.49001" lon="6.73096"><ele>399</ele><time>2016-07-01T13:26:05Z</time></trkpt>
<trkpt lat="46.49004" lon="6.73104"><ele>399.2</ele><time>2016-07-01T13:26:07Z</time></trkpt>
<trkpt lat="46.49007" lon="6.73111"><ele>399.2</ele><time>2016-07-01T13:26:09Z</time></trkpt>
<trkpt lat="46.49012" lon="6.73124"><ele>399</ele><time>2016-07-01T13:26:13Z</time></trkpt>
<trkpt lat="46.49014" lon="6.73128"><ele>399</ele><time>2016-07-01T13:26:14Z</time></trkpt>
<trkpt lat="46.49024" lon="6.73151"><ele>399</ele><time>2016-07-01T13:26:19Z</time></trkpt>
<trkpt lat="46.49026" lon="6.73156"><ele>398.6</ele><time>2016-07-01T13:26:20Z</time></trkpt>
<trkpt lat="46.49033" lon="6.73181"><ele>397</ele><time>2016-07-01T13:26:24Z</time></trkpt>
<trkpt lat="46.49039" lon="6.73206"><ele>395.8</ele><time>2016-07-01T13:26:27Z</time></trkpt>
<trkpt lat="46.49046" lon="6.73232"><ele>395.2</ele><time>2016-07-01T13:26:30Z</time></trkpt>
<trkpt lat="46.49053" lon="6.73262"><ele>394.8</ele><time>2016-07-01T13:26:34Z</time></trkpt>
<trkpt lat="46.49059" lon="6.7329"><ele>393.6</ele><time>2016-07-01T13:26:39Z</time></trkpt>
<trkpt lat="46.49062" lon="6.73318"><ele>393.8</ele><time>2016-07-01T13:26:43Z</time></trkpt>
<trkpt lat="46.4907" lon="6.73346"><ele>393.6</ele><time>2016-07-01T13:26:47Z</time></trkpt>
<trkpt lat="46.49077" lon="6.73368"><ele>393.6</ele><time>2016-07-01T13:26:50Z</time></trkpt>
<trkpt lat="46.49084" lon="6.73397"><ele>393.8</ele><time>2016-07-01T13:26:54Z</time></trkpt>
<trkpt lat="46.49093" lon="6.73429"><ele>393.8</ele><time>2016-07-01T13:26:58Z</time></trkpt>
<trkpt lat="46.491" lon="6.7346"><ele>394.4</ele><time>2016-07-01T13:27:02Z</time></trkpt>
<trkpt lat="46.49104" lon="6.73491"><ele>395</ele><time>2016-07-01T13:27:06Z</time></trkpt>
<trkpt lat="46.49108" lon="6.73513"><ele>394.4</ele><time>2016-07-01T13:27:09Z</time></trkpt>
<trkpt lat="46.49112" lon="6.73527"><ele>394.6</ele><time>2016-07-01T13:27:11Z</time></trkpt>
<trkpt lat="46.49122" lon="6.73551"><ele>395.6</ele><time>2016-07-01T13:27:15Z</time></trkpt>
<trkpt lat="46.49123" lon="6.73556"><ele>395.6</ele><time>2016-07-01T13:27:16Z</time></trkpt>
<trkpt lat="46.49126" lon="6.73573"><ele>397</ele><time>2016-07-01T13:27:20Z</time></trkpt>
<trkpt lat="46.49126" lon="6.73606"><ele>400.8</ele><time>2016-07-01T13:27:29Z</time></trkpt>
<trkpt lat="46.49127" lon="6.73621"><ele>401.6</ele><time>2016-07-01T13:27:33Z</time></trkpt>
<trkpt lat="46.49128" lon="6.73648"><ele>403.2</ele><time>2016-07-01T13:27:40Z</time></trkpt>
<trkpt lat="46.49128" lon="6.73675"><ele>402.6</ele><time>2016-07-01T13:27:46Z</time></trkpt>
<trkpt lat="46.49128" lon="6.73693"><ele>402</ele><time>2016-07-01T13:27:49Z</time></trkpt>
<trkpt lat="46.49128" lon="6.73722"><ele>401.8</ele><time>2016-07-01T13:27:53Z</time></trkpt>
<trkpt lat="46.49128" lon="6.73749"><ele>402.2</ele><time>2016-07-01T13:27:57Z</time></trkpt>
<trkpt lat="46.49125" lon="6.73775"><ele>402.6</ele><time>2016-07-01T13:28:01Z</time></trkpt>
<trkpt lat="46.49123" lon="6.73795"><ele>402.6</ele><time>2016-07-01T13:28:04Z</time></trkpt>
<trkpt lat="46.49119" lon="6.7382"><ele>403</ele><time>2016-07-01T13:28:08Z</time></trkpt>
<trkpt lat="46.49115" lon="6.73846"><ele>403.4</ele><time>2016-07-01T13:28:12Z</time></trkpt>
<trkpt lat="46.49109" lon="6.73872"><ele>403.4</ele><time>2016-07-01T13:28:16Z</time></trkpt>
<trkpt lat="46.49106" lon="6.73883"><ele>403.6</ele><time>2016-07-01T13:28:18Z</time></trkpt>
<trkpt lat="46.49105" lon="6.73889"><ele>403.8</ele><time>2016-07-01T13:28:19Z</time></trkpt>
<trkpt lat="46.49103" lon="6.73899"><ele>404.2</ele><time>2016-07-01T13:28:21Z</time></trkpt>
<trkpt lat="46.49104" lon="6.73911"><ele>404.8</ele><time>2016-07-01T13:28:24Z</time></trkpt>
<trkpt lat="46.49105" lon="6.73923"><ele>406</ele><time>2016-07-01T13:28:30Z</time></trkpt>
<trkpt lat="46.49105" lon="6.73917"><ele>406.4</ele><time>2016-07-01T13:28:35Z</time></trkpt>
<trkpt lat="46.49113" lon="6.73931"><ele>408</ele><time>2016-07-01T13:28:42Z</time></trkpt>
<trkpt lat="46.49125" lon="6.73945"><ele>411.2</ele><time>2016-07-01T13:28:54Z</time></trkpt>
<trkpt lat="46.49137" lon="6.73962"><ele>416</ele><time>2016-07-01T13:29:09Z</time></trkpt>
<trkpt lat="46.49138" lon="6.73968"><ele>417.2</ele><time>2016-07-01T13:29:13Z</time></trkpt>
<trkpt lat="46.4914" lon="6.73971"><ele>418.2</ele><time>2016-07-01T13:29:16Z</time></trkpt>
<trkpt lat="46.49142" lon="6.7398"><ele>421</ele><time>2016-07-01T13:29:23Z</time></trkpt>
<trkpt lat="46.49148" lon="6.74001"><ele>426.4</ele><time>2016-07-01T13:29:40Z</time></trkpt>
<trkpt lat="46.49148" lon="6.74002"><ele>426.6</ele><time>2016-07-01T13:29:41Z</time></trkpt>
<trkpt lat="46.49146" lon="6.74007"><ele>427.8</ele><time>2016-07-01T13:29:44Z</time></trkpt>
<trkpt lat="46.49146" lon="6.7402"><ele>431</ele><time>2016-07-01T13:29:55Z</time></trkpt>
<trkpt lat="46.49145" lon="6.74047"><ele>436.4</ele><time>2016-07-01T13:30:13Z</time></trkpt>
<trkpt lat="46.49149" lon="6.74067"><ele>440.2</ele><time>2016-07-01T13:30:26Z</time></trkpt>
<trkpt lat="46.49149" lon="6.74075"><ele>441.8</ele><time>2016-07-01T13:30:31Z</time></trkpt>
<trkpt lat="46.49151" lon="6.7408"><ele>442.6</ele><time>2016-07-01T13:30:34Z</time></trkpt>
<trkpt lat="46.49153" lon="6.74095"><ele>445.4</ele><time>2016-07-01T13:30:43Z</time></trkpt>
<trkpt lat="46.49162" lon="6.74119"><ele>448.8</ele><time>2016-07-01T13:30:57Z</time></trkpt>
<trkpt lat="46.49165" lon="6.74134"><ele>448.6</ele><time>2016-07-01T13:31:04Z</time></trkpt>
<trkpt lat="46.49168" lon="6.74169"><ele>451.4</ele><time>2016-07-01T13:31:22Z</time></trkpt>
<trkpt lat="46.49168" lon="6.74175"><ele>451.6</ele><time>2016-07-01T13:31:25Z</time></trkpt>
<trkpt lat="46.49174" lon="6.742"><ele>451.8</ele><time>2016-07-01T13:31:36Z</time></trkpt>
<trkpt lat="46.49177" lon="6.74227"><ele>451.4</ele><time>2016-07-01T13:31:46Z</time></trkpt>
<trkpt lat="46.49183" lon="6.74253"><ele>451.8</ele><time>2016-07-01T13:31:56Z</time></trkpt>
<trkpt lat="46.49188" lon="6.74278"><ele>453.6</ele><time>2016-07-01T13:32:06Z</time></trkpt>
<trkpt lat="46.4919" lon="6.74304"><ele>454.4</ele><time>2016-07-01T13:32:16Z</time></trkpt>
<trkpt lat="46.49191" lon="6.74321"><ele>456.2</ele><time>2016-07-01T13:32:23Z</time></trkpt>
<trkpt lat="46.4919" lon="6.74351"><ele>461</ele><time>2016-07-01T13:32:40Z</time></trkpt>
<trkpt lat="46.49186" lon="6.74364"><ele>463.6</ele><time>2016-07-01T13:32:47Z</time></trkpt>
<trkpt lat="46.49171" lon="6.74375"><ele>464.8</ele><time>2016-07-01T13:32:53Z</time></trkpt>
<trkpt lat="46.49158" lon="6.74385"><ele>465</ele><time>2016-07-01T13:32:56Z</time></trkpt>
<trkpt lat="46.49142" lon="6.74398"><ele>464.6</ele><time>2016-07-01T13:33:00Z</time></trkpt>
<trkpt lat="46.49135" lon="6.74422"><ele>459.4</ele><time>2016-07-01T13:33:04Z</time></trkpt>
<trkpt lat="46.49128" lon="6.74452"><ele>454</ele><time>2016-07-01T13:33:09Z</time></trkpt>
<trkpt lat="46.49112" lon="6.74466"><ele>448.2</ele><time>2016-07-01T13:33:13Z</time></trkpt>
<trkpt lat="46.491" lon="6.74469"><ele>444.8</ele><time>2016-07-01T13:33:16Z</time></trkpt>
<trkpt lat="46.49084" lon="6.7448"><ele>439.2</ele><time>2016-07-01T13:33:21Z</time></trkpt>
<trkpt lat="46.49081" lon="6.74491"><ele>437.2</ele><time>2016-07-01T13:33:23Z</time></trkpt>
<trkpt lat="46.49076" lon="6.7452"><ele>436.8</ele><time>2016-07-01T13:33:27Z</time></trkpt>
<trkpt lat="46.49072" lon="6.74547"><ele>436.6</ele><time>2016-07-01T13:33:31Z</time></trkpt>
<trkpt lat="46.49068" lon="6.74572"><ele>436.4</ele><time>2016-07-01T13:33:35Z</time></trkpt>
<trkpt lat="46.49056" lon="6.746"><ele>434</ele><time>2016-07-01T13:33:40Z</time></trkpt>
<trkpt lat="46.49044" lon="6.7462"><ele>432.6</ele><time>2016-07-01T13:33:44Z</time></trkpt>
<trkpt lat="46.49036" lon="6.74634"><ele>432.6</ele><time>2016-07-01T13:33:47Z</time></trkpt>
<trkpt lat="46.49033" lon="6.74639"><ele>433</ele><time>2016-07-01T13:33:48Z</time></trkpt>
<trkpt lat="46.49031" lon="6.74644"><ele>433.2</ele><time>2016-07-01T13:33:49Z</time></trkpt>
<trkpt lat="46.49027" lon="6.74652"><ele>433.8</ele><time>2016-07-01T13:33:51Z</time></trkpt>
<trkpt lat="46.4902" lon="6.74664"><ele>435.2</ele><time>2016-07-01T13:33:55Z</time></trkpt>
<trkpt lat="46.49016" lon="6.7467"><ele>435.6</ele><time>2016-07-01T13:33:57Z</time></trkpt>
<trkpt lat="46.49014" lon="6.74674"><ele>435.8</ele><time>2016-07-01T13:33:58Z</time></trkpt>
<trkpt lat="46.49009" lon="6.74681"><ele>435.6</ele><time>2016-07-01T13:34:00Z</time></trkpt>
<trkpt lat="46.49004" lon="6.74689"><ele>435.4</ele><time>2016-07-01T13:34:02Z</time></trkpt>
<trkpt lat="46.48992" lon="6.74714"><ele>434.2</ele><time>2016-07-01T13:34:06Z</time></trkpt>
<trkpt lat="46.48981" lon="6.74741"><ele>433.4</ele><time>2016-07-01T13:34:09Z</time></trkpt>
<trkpt lat="46.48972" lon="6.74766"><ele>433.2</ele><time>2016-07-01T13:34:12Z</time></trkpt>
<trkpt lat="46.48962" lon="6.74792"><ele>434.2</ele><time>2016-07-01T13:34:16Z</time></trkpt>
<trkpt lat="46.48951" lon="6.74826"><ele>436.4</ele><time>2016-07-01T13:34:24Z</time></trkpt>
<trkpt lat="46.48947" lon="6.7485"><ele>439.6</ele><time>2016-07-01T13:34:30Z</time></trkpt>
<trkpt lat="46.48943" lon="6.74878"><ele>443</ele><time>2016-07-01T13:34:36Z</time></trkpt>
<trkpt lat="46.48941" lon="6.74893"><ele>444.6</ele><time>2016-07-01T13:34:40Z</time></trkpt>
<trkpt lat="46.48938" lon="6.74918"><ele>447.2</ele><time>2016-07-01T13:34:47Z</time></trkpt>
<trkpt lat="46.48935" lon="6.74932"><ele>449.6</ele><time>2016-07-01T13:34:51Z</time></trkpt>
<trkpt lat="46.48925" lon="6.74955"><ele>451.6</ele><time>2016-07-01T13:34:57Z</time></trkpt>
<trkpt lat="46.48913" lon="6.74976"><ele>453</ele><time>2016-07-01T13:35:02Z</time></trkpt>
<trkpt lat="46.48895" lon="6.7499"><ele>455</ele><time>2016-07-01T13:35:07Z</time></trkpt>
<trkpt lat="46.48876" lon="6.75001"><ele>457.8</ele><time>2016-07-01T13:35:12Z</time></trkpt>
<trkpt lat="46.4886" lon="6.75018"><ele>457</ele><time>2016-07-01T13:35:18Z</time></trkpt>
<trkpt lat="46.48847" lon="6.75037"><ele>456</ele><time>2016-07-01T13:35:25Z</time></trkpt>
<trkpt lat="46.48834" lon="6.75076"><ele>452.6</ele><time>2016-07-01T13:35:33Z</time></trkpt>
<trkpt lat="46.48831" lon="6.75095"><ele>452</ele><time>2016-07-01T13:35:36Z</time></trkpt>
<trkpt lat="46.48828" lon="6.7512"><ele>451</ele><time>2016-07-01T13:35:39Z</time></trkpt>
<trkpt lat="46.48817" lon="6.75147"><ele>450.6</ele><time>2016-07-01T13:35:42Z</time></trkpt>
<trkpt lat="46.48807" lon="6.75161"><ele>451.6</ele><time>2016-07-01T13:35:44Z</time></trkpt>
<trkpt lat="46.48795" lon="6.75186"><ele>453.6</ele><time>2016-07-01T13:35:48Z</time></trkpt>
<trkpt lat="46.48793" lon="6.75192"><ele>453.6</ele><time>2016-07-01T13:35:49Z</time></trkpt>
<trkpt lat="46.48785" lon="6.75216"><ele>454.8</ele><time>2016-07-01T13:35:53Z</time></trkpt>
<trkpt lat="46.48779" lon="6.75229"><ele>454.8</ele><time>2016-07-01T13:35:55Z</time></trkpt>
<trkpt lat="46.48764" lon="6.75253"><ele>456</ele><time>2016-07-01T13:35:59Z</time></trkpt>
<trkpt lat="46.48752" lon="6.75274"><ele>456.4</ele><time>2016-07-01T13:36:02Z</time></trkpt>
<trkpt lat="46.48739" lon="6.75299"><ele>456.4</ele><time>2016-07-01T13:36:05Z</time></trkpt>
<trkpt lat="46.48723" lon="6.75325"><ele>455.6</ele><time>2016-07-01T13:36:08Z</time></trkpt>
<trkpt lat="46.48712" lon="6.75346"><ele>455</ele><time>2016-07-01T13:36:10Z</time></trkpt>
<trkpt lat="46.48696" lon="6.75375"><ele>455.6</ele><time>2016-07-01T13:36:13Z</time></trkpt>
<trkpt lat="46.48688" lon="6.7539"><ele>456.2</ele><time>2016-07-01T13:36:15Z</time></trkpt>
<trkpt lat="46.48675" lon="6.75412"><ele>456.2</ele><time>2016-07-01T13:36:19Z</time></trkpt>
<trkpt lat="46.48664" lon="6.75426"><ele>456.2</ele><time>2016-07-01T13:36:23Z</time></trkpt>
<trkpt lat="46.48647" lon="6.75443"><ele>454.4</ele><time>2016-07-01T13:36:30Z</time></trkpt>
<trkpt lat="46.48629" lon="6.75459"><ele>447.2</ele><time>2016-07-01T13:36:35Z</time></trkpt>
<trkpt lat="46.48609" lon="6.75477"><ele>442.6</ele><time>2016-07-01T13:36:39Z</time></trkpt>
<trkpt lat="46.48593" lon="6.75492"><ele>439.2</ele><time>2016-07-01T13:36:42Z</time></trkpt>
<trkpt lat="46.48583" lon="6.75504"><ele>437.8</ele><time>2016-07-01T13:36:44Z</time></trkpt>
<trkpt lat="46.48572" lon="6.75525"><ele>442</ele><time>2016-07-01T13:36:47Z</time></trkpt>
<trkpt lat="46.48559" lon="6.7555"><ele>445.4</ele><time>2016-07-01T13:36:51Z</time></trkpt>
<trkpt lat="46.4855" lon="6.75575"><ele>447.6</ele><time>2016-07-01T13:36:56Z</time></trkpt>
<trkpt lat="46.48548" lon="6.75578"><ele>448.2</ele><time>2016-07-01T13:36:57Z</time></trkpt>
<trkpt lat="46.48543" lon="6.75589"><ele>448.6</ele><time>2016-07-01T13:37:00Z</time></trkpt>
<trkpt lat="46.48534" lon="6.75606"><ele>450</ele><time>2016-07-01T13:37:04Z</time></trkpt>
<trkpt lat="46.48527" lon="6.75623"><ele>451</ele><time>2016-07-01T13:37:08Z</time></trkpt>
<trkpt lat="46.48522" lon="6.75634"><ele>451.6</ele><time>2016-07-01T13:37:11Z</time></trkpt>
<trkpt lat="46.48508" lon="6.75652"><ele>450.2</ele><time>2016-07-01T13:37:17Z</time></trkpt>
<trkpt lat="46.48499" lon="6.75663"><ele>449.4</ele><time>2016-07-01T13:37:20Z</time></trkpt>
<trkpt lat="46.48486" lon="6.75685"><ele>451.6</ele><time>2016-07-01T13:37:26Z</time></trkpt>
<trkpt lat="46.48477" lon="6.75701"><ele>452.2</ele><time>2016-07-01T13:37:30Z</time></trkpt>
<trkpt lat="46.48465" lon="6.75722"><ele>452.4</ele><time>2016-07-01T13:37:35Z</time></trkpt>
<trkpt lat="46.4845" lon="6.75744"><ele>452.6</ele><time>2016-07-01T13:37:40Z</time></trkpt>
<trkpt lat="46.48436" lon="6.75762"><ele>453.2</ele><time>2016-07-01T13:37:44Z</time></trkpt>
<trkpt lat="46.48422" lon="6.75782"><ele>455</ele><time>2016-07-01T13:37:48Z</time></trkpt>
<trkpt lat="46.48413" lon="6.7579"><ele>455</ele><time>2016-07-01T13:37:50Z</time></trkpt>
<trkpt lat="46.48396" lon="6.75801"><ele>453.4</ele><time>2016-07-01T13:37:53Z</time></trkpt>
<trkpt lat="46.4839" lon="6.75806"><ele>452.8</ele><time>2016-07-01T13:37:54Z</time></trkpt>
<trkpt lat="46.48374" lon="6.75828"><ele>452.6</ele><time>2016-07-01T13:37:57Z</time></trkpt>
<trkpt lat="46.4837" lon="6.75835"><ele>453.6</ele><time>2016-07-01T13:37:58Z</time></trkpt>
<trkpt lat="46.48357" lon="6.75854"><ele>454.4</ele><time>2016-07-01T13:38:01Z</time></trkpt>
<trkpt lat="46.48339" lon="6.75876"><ele>453</ele><time>2016-07-01T13:38:05Z</time></trkpt>
<trkpt lat="46.48321" lon="6.75898"><ele>451.8</ele><time>2016-07-01T13:38:09Z</time></trkpt>
<trkpt lat="46.48302" lon="6.7592"><ele>451.4</ele><time>2016-07-01T13:38:13Z</time></trkpt>
<trkpt lat="46.48288" lon="6.75936"><ele>451.4</ele><time>2016-07-01T13:38:16Z</time></trkpt>
<trkpt lat="46.48275" lon="6.75954"><ele>451.4</ele><time>2016-07-01T13:38:19Z</time></trkpt>
<trkpt lat="46.4826" lon="6.7597"><ele>452.2</ele><time>2016-07-01T13:38:22Z</time></trkpt>
<trkpt lat="46.48245" lon="6.75987"><ele>451.8</ele><time>2016-07-01T13:38:25Z</time></trkpt>
<trkpt lat="46.4823" lon="6.76004"><ele>451</ele><time>2016-07-01T13:38:28Z</time></trkpt>
<trkpt lat="46.48221" lon="6.76014"><ele>451</ele><time>2016-07-01T13:38:30Z</time></trkpt>
<trkpt lat="46.48206" lon="6.76027"><ele>447.4</ele><time>2016-07-01T13:38:33Z</time></trkpt>
<trkpt lat="46.48189" lon="6.76051"><ele>442.2</ele><time>2016-07-01T13:38:37Z</time></trkpt>
<trkpt lat="46.48175" lon="6.76073"><ele>441.4</ele><time>2016-07-01T13:38:40Z</time></trkpt>
<trkpt lat="46.48171" lon="6.7608"><ele>442</ele><time>2016-07-01T13:38:41Z</time></trkpt>
<trkpt lat="46.48165" lon="6.76094"><ele>443.2</ele><time>2016-07-01T13:38:43Z</time></trkpt>
<trkpt lat="46.4816" lon="6.76106"><ele>443.8</ele><time>2016-07-01T13:38:45Z</time></trkpt>
<trkpt lat="46.48158" lon="6.76112"><ele>443.8</ele><time>2016-07-01T13:38:46Z</time></trkpt>
<trkpt lat="46.48147" lon="6.76134"><ele>443.6</ele><time>2016-07-01T13:38:50Z</time></trkpt>
<trkpt lat="46.48137" lon="6.76152"><ele>443.6</ele><time>2016-07-01T13:38:53Z</time></trkpt>
<trkpt lat="46.48124" lon="6.76173"><ele>443.6</ele><time>2016-07-01T13:38:56Z</time></trkpt>
<trkpt lat="46.48109" lon="6.76198"><ele>443.6</ele><time>2016-07-01T13:38:59Z</time></trkpt>
<trkpt lat="46.48093" lon="6.76226"><ele>442.8</ele><time>2016-07-01T13:39:02Z</time></trkpt>
<trkpt lat="46.48079" lon="6.76254"><ele>443</ele><time>2016-07-01T13:39:05Z</time></trkpt>
<trkpt lat="46.48067" lon="6.76282"><ele>443</ele><time>2016-07-01T13:39:08Z</time></trkpt>
<trkpt lat="46.48056" lon="6.76307"><ele>443.4</ele><time>2016-07-01T13:39:11Z</time></trkpt>
<trkpt lat="46.48045" lon="6.76332"><ele>442.4</ele><time>2016-07-01T13:39:14Z</time></trkpt>
<trkpt lat="46.48035" lon="6.7635"><ele>441.6</ele><time>2016-07-01T13:39:16Z</time></trkpt>
<trkpt lat="46.48015" lon="6.76373"><ele>439.4</ele><time>2016-07-01T13:39:19Z</time></trkpt>
<trkpt lat="46.48002" lon="6.76391"><ele>437.2</ele><time>2016-07-01T13:39:21Z</time></trkpt>
<trkpt lat="46.47991" lon="6.76414"><ele>435.4</ele><time>2016-07-01T13:39:23Z</time></trkpt>
<trkpt lat="46.4798" lon="6.76438"><ele>436</ele><time>2016-07-01T13:39:25Z</time></trkpt>
<trkpt lat="46.47969" lon="6.7647"><ele>436.6</ele><time>2016-07-01T13:39:28Z</time></trkpt>
<trkpt lat="46.47962" lon="6.76501"><ele>436.2</ele><time>2016-07-01T13:39:31Z</time></trkpt>
<trkpt lat="46.47953" lon="6.76536"><ele>435.2</ele><time>2016-07-01T13:39:34Z</time></trkpt>
<trkpt lat="46.47942" lon="6.76568"><ele>436.4</ele><time>2016-07-01T13:39:37Z</time></trkpt>
<trkpt lat="46.47932" lon="6.76596"><ele>436.6</ele><time>2016-07-01T13:39:40Z</time></trkpt>
<trkpt lat="46.47922" lon="6.76623"><ele>437</ele><time>2016-07-01T13:39:43Z</time></trkpt>
<trkpt lat="46.47913" lon="6.76648"><ele>437</ele><time>2016-07-01T13:39:46Z</time></trkpt>
<trkpt lat="46.47902" lon="6.76671"><ele>436.8</ele><time>2016-07-01T13:39:49Z</time></trkpt>
<trkpt lat="46.47892" lon="6.76694"><ele>436.8</ele><time>2016-07-01T13:39:52Z</time></trkpt>
<trkpt lat="46.4788" lon="6.7672"><ele>434.8</ele><time>2016-07-01T13:39:55Z</time></trkpt>
<trkpt lat="46.4787" lon="6.7675"><ele>434</ele><time>2016-07-01T13:39:58Z</time></trkpt>
<trkpt lat="46.47861" lon="6.76778"><ele>435.2</ele><time>2016-07-01T13:40:01Z</time></trkpt>
<trkpt lat="46.47854" lon="6.76806"><ele>437</ele><time>2016-07-01T13:40:05Z</time></trkpt>
<trkpt lat="46.47848" lon="6.76835"><ele>438.6</ele><time>2016-07-01T13:40:11Z</time></trkpt>
<trkpt lat="46.4784" lon="6.76872"><ele>441.2</ele><time>2016-07-01T13:40:21Z</time></trkpt>
<trkpt lat="46.47837" lon="6.76883"><ele>441.4</ele><time>2016-07-01T13:40:24Z</time></trkpt>
<trkpt lat="46.47835" lon="6.76895"><ele>442.2</ele><time>2016-07-01T13:40:27Z</time></trkpt>
<trkpt lat="46.47832" lon="6.76911"><ele>443.8</ele><time>2016-07-01T13:40:31Z</time></trkpt>
<trkpt lat="46.47825" lon="6.76936"><ele>446.2</ele><time>2016-07-01T13:40:37Z</time></trkpt>
<trkpt lat="46.47819" lon="6.76955"><ele>447.8</ele><time>2016-07-01T13:40:42Z</time></trkpt>
<trkpt lat="46.4781" lon="6.76978"><ele>449</ele><time>2016-07-01T13:40:48Z</time></trkpt>
<trkpt lat="46.47798" lon="6.77012"><ele>449</ele><time>2016-07-01T13:40:57Z</time></trkpt>
<trkpt lat="46.47797" lon="6.77021"><ele>449</ele><time>2016-07-01T13:40:59Z</time></trkpt>
<trkpt lat="46.47792" lon="6.77039"><ele>449.8</ele><time>2016-07-01T13:41:03Z</time></trkpt>
<trkpt lat="46.47783" lon="6.77065"><ele>450.8</ele><time>2016-07-01T13:41:09Z</time></trkpt>
<trkpt lat="46.47775" lon="6.77092"><ele>451.8</ele><time>2016-07-01T13:41:15Z</time></trkpt>
<trkpt lat="46.47773" lon="6.771"><ele>452</ele><time>2016-07-01T13:41:17Z</time></trkpt>
<trkpt lat="46.47761" lon="6.77126"><ele>451.4</ele><time>2016-07-01T13:41:24Z</time></trkpt>
<trkpt lat="46.47747" lon="6.77146"><ele>450.6</ele><time>2016-07-01T13:41:28Z</time></trkpt>
<trkpt lat="46.47739" lon="6.77157"><ele>450.2</ele><time>2016-07-01T13:41:30Z</time></trkpt>
<trkpt lat="46.47732" lon="6.77182"><ele>449.8</ele><time>2016-07-01T13:41:34Z</time></trkpt>
<trkpt lat="46.47727" lon="6.77204"><ele>450.6</ele><time>2016-07-01T13:41:38Z</time></trkpt>
<trkpt lat="46.47723" lon="6.77221"><ele>451.2</ele><time>2016-07-01T13:41:41Z</time></trkpt>
<trkpt lat="46.47713" lon="6.77255"><ele>453.6</ele><time>2016-07-01T13:41:50Z</time></trkpt>
<trkpt lat="46.4771" lon="6.77275"><ele>455.6</ele><time>2016-07-01T13:41:57Z</time></trkpt>
<trkpt lat="46.47708" lon="6.77289"><ele>456.8</ele><time>2016-07-01T13:42:02Z</time></trkpt>
<trkpt lat="46.47704" lon="6.7731"><ele>459.4</ele><time>2016-07-01T13:42:09Z</time></trkpt>
<trkpt lat="46.47701" lon="6.77319"><ele>460.8</ele><time>2016-07-01T13:42:12Z</time></trkpt>
<trkpt lat="46.47691" lon="6.77342"><ele>462.8</ele><time>2016-07-01T13:42:20Z</time></trkpt>
<trkpt lat="46.4768" lon="6.77364"><ele>463.6</ele><time>2016-07-01T13:42:27Z</time></trkpt>
<trkpt lat="46.4767" lon="6.7739"><ele>464</ele><time>2016-07-01T13:42:34Z</time></trkpt>
<trkpt lat="46.47658" lon="6.7743"><ele>463.8</ele><time>2016-07-01T13:42:44Z</time></trkpt>
<trkpt lat="46.4765" lon="6.77457"><ele>464</ele><time>2016-07-01T13:42:51Z</time></trkpt>
<trkpt lat="46.47647" lon="6.77473"><ele>463.6</ele><time>2016-07-01T13:42:57Z</time></trkpt>
<trkpt lat="46.47656" lon="6.77477"><ele>464.2</ele><time>2016-07-01T13:43:02Z</time></trkpt>
<trkpt lat="46.47661" lon="6.7748"><ele>464</ele><time>2016-07-01T13:43:04Z</time></trkpt>
<trkpt lat="46.47678" lon="6.77486"><ele>463.2</ele><time>2016-07-01T13:43:08Z</time></trkpt>
<trkpt lat="46.4769" lon="6.77488"><ele>462.4</ele><time>2016-07-01T13:43:10Z</time></trkpt>
<trkpt lat="46.47696" lon="6.7749"><ele>462</ele><time>2016-07-01T13:43:11Z</time></trkpt>
<trkpt lat="46.47702" lon="6.77491"><ele>461.8</ele><time>2016-07-01T13:43:12Z</time></trkpt>
<trkpt lat="46.47714" lon="6.77493"><ele>460.6</ele><time>2016-07-01T13:43:14Z</time></trkpt>
<trkpt lat="46.47722" lon="6.77502"><ele>458.4</ele><time>2016-07-01T13:43:16Z</time></trkpt>
<trkpt lat="46.47723" lon="6.77526"><ele>455.4</ele><time>2016-07-01T13:43:19Z</time></trkpt>
<trkpt lat="46.47722" lon="6.77534"><ele>454.6</ele><time>2016-07-01T13:43:20Z</time></trkpt>
<trkpt lat="46.47716" lon="6.77562"><ele>451.6</ele><time>2016-07-01T13:43:23Z</time></trkpt>
<trkpt lat="46.47713" lon="6.77572"><ele>450.8</ele><time>2016-07-01T13:43:24Z</time></trkpt>
<trkpt lat="46.47702" lon="6.77602"><ele>448</ele><time>2016-07-01T13:43:27Z</time></trkpt>
<trkpt lat="46.47699" lon="6.77612"><ele>447.6</ele><time>2016-07-01T13:43:28Z</time></trkpt>
<trkpt lat="46.47694" lon="6.77638"><ele>445.8</ele><time>2016-07-01T13:43:31Z</time></trkpt>
<trkpt lat="46.47687" lon="6.77664"><ele>443.6</ele><time>2016-07-01T13:43:34Z</time></trkpt>
<trkpt lat="46.47673" lon="6.77685"><ele>441</ele><time>2016-07-01T13:43:37Z</time></trkpt>
<trkpt lat="46.47656" lon="6.77701"><ele>438.4</ele><time>2016-07-01T13:43:40Z</time></trkpt>
<trkpt lat="46.47652" lon="6.77708"><ele>437.8</ele><time>2016-07-01T13:43:41Z</time></trkpt>
<trkpt lat="46.47633" lon="6.77722"><ele>434.8</ele><time>2016-07-01T13:43:45Z</time></trkpt>
<trkpt lat="46.47629" lon="6.77728"><ele>434.4</ele><time>2016-07-01T13:43:46Z</time></trkpt>
<trkpt lat="46.47613" lon="6.77751"><ele>432.6</ele><time>2016-07-01T13:43:50Z</time></trkpt>
<trkpt lat="46.47607" lon="6.77762"><ele>431.6</ele><time>2016-07-01T13:43:52Z</time></trkpt>
<trkpt lat="46.47602" lon="6.7777"><ele>430.6</ele><time>2016-07-01T13:43:54Z</time></trkpt>
<trkpt lat="46.47602" lon="6.77789"><ele>429.2</ele><time>2016-07-01T13:44:00Z</time></trkpt>
<trkpt lat="46.47603" lon="6.77792"><ele>429</ele><time>2016-07-01T13:44:01Z</time></trkpt>
<trkpt lat="46.47611" lon="6.77804"><ele>427.8</ele><time>2016-07-01T13:44:07Z</time></trkpt>
<trkpt lat="46.47613" lon="6.77809"><ele>427</ele><time>2016-07-01T13:44:09Z</time></trkpt>
<trkpt lat="46.47614" lon="6.77811"><ele>426.8</ele><time>2016-07-01T13:44:10Z</time></trkpt>
<trkpt lat="46.47622" lon="6.77821"><ele>425.2</ele><time>2016-07-01T13:44:15Z</time></trkpt>
<trkpt lat="46.47623" lon="6.77824"><ele>425</ele><time>2016-07-01T13:44:16Z</time></trkpt>
<trkpt lat="46.47625" lon="6.77828"><ele>424.8</ele><time>2016-07-01T13:44:18Z</time></trkpt>
<trkpt lat="46.47631" lon="6.77836"><ele>423.8</ele><time>2016-07-01T13:44:23Z</time></trkpt>
<trkpt lat="46.47632" lon="6.77838"><ele>423.6</ele><time>2016-07-01T13:44:24Z</time></trkpt>
<trkpt lat="46.47636" lon="6.77843"><ele>423.6</ele><time>2016-07-01T13:44:27Z</time></trkpt>
<trkpt lat="46.47642" lon="6.77852"><ele>424</ele><time>2016-07-01T13:44:32Z</time></trkpt>
<trkpt lat="46.47644" lon="6.77855"><ele>424</ele><time>2016-07-01T13:44:34Z</time></trkpt>
<trkpt lat="46.47647" lon="6.77855"><ele>423.8</ele><time>2016-07-01T13:44:36Z</time></trkpt>
<trkpt lat="46.47666" lon="6.7785"><ele>422.8</ele><time>2016-07-01T13:44:45Z</time></trkpt>
<trkpt lat="46.4767" lon="6.77849"><ele>422.8</ele><time>2016-07-01T13:44:47Z</time></trkpt>
<trkpt lat="46.4769" lon="6.77855"><ele>425.6</ele><time>2016-07-01T13:44:53Z</time></trkpt>
<trkpt lat="46.47693" lon="6.7786"><ele>426.2</ele><time>2016-07-01T13:44:54Z</time></trkpt>
<trkpt lat="46.47701" lon="6.77886"><ele>430.2</ele><time>2016-07-01T13:44:59Z</time></trkpt>
<trkpt lat="46.47704" lon="6.77894"><ele>429.6</ele><time>2016-07-01T13:45:00Z</time></trkpt>
<trkpt lat="46.47707" lon="6.77912"><ele>432.2</ele><time>2016-07-01T13:45:02Z</time></trkpt>
<trkpt lat="46.47712" lon="6.77939"><ele>435.4</ele><time>2016-07-01T13:45:05Z</time></trkpt>
<trkpt lat="46.47714" lon="6.77971"><ele>438.2</ele><time>2016-07-01T13:45:08Z</time></trkpt>
<trkpt lat="46.47715" lon="6.77993"><ele>439.2</ele><time>2016-07-01T13:45:10Z</time></trkpt>
<trkpt lat="46.47718" lon="6.78024"><ele>441</ele><time>2016-07-01T13:45:13Z</time></trkpt>
<trkpt lat="46.47718" lon="6.78042"><ele>442.6</ele><time>2016-07-01T13:45:15Z</time></trkpt>
<trkpt lat="46.47716" lon="6.78075"><ele>445.8</ele><time>2016-07-01T13:45:19Z</time></trkpt>
<trkpt lat="46.47711" lon="6.78102"><ele>447.4</ele><time>2016-07-01T13:45:23Z</time></trkpt>
<trkpt lat="46.47702" lon="6.78127"><ele>447.4</ele><time>2016-07-01T13:45:27Z</time></trkpt>
<trkpt lat="46.47691" lon="6.78156"><ele>447.8</ele><time>2016-07-01T13:45:31Z</time></trkpt>
<trkpt lat="46.47679" lon="6.78177"><ele>447.2</ele><time>2016-07-01T13:45:34Z</time></trkpt>
<trkpt lat="46.47662" lon="6.78198"><ele>446.6</ele><time>2016-07-01T13:45:37Z</time></trkpt>
<trkpt lat="46.47645" lon="6.78222"><ele>445.8</ele><time>2016-07-01T13:45:40Z</time></trkpt>
<trkpt lat="46.47629" lon="6.7825"><ele>445</ele><time>2016-07-01T13:45:43Z</time></trkpt>
<trkpt lat="46.47619" lon="6.7827"><ele>443.8</ele><time>2016-07-01T13:45:45Z</time></trkpt>
<trkpt lat="46.47612" lon="6.7828"><ele>443</ele><time>2016-07-01T13:45:46Z</time></trkpt>
<trkpt lat="46.47599" lon="6.783"><ele>441</ele><time>2016-07-01T13:45:48Z</time></trkpt>
<trkpt lat="46.47588" lon="6.78319"><ele>439.4</ele><time>2016-07-01T13:45:50Z</time></trkpt>
<trkpt lat="46.47578" lon="6.78339"><ele>438.2</ele><time>2016-07-01T13:45:52Z</time></trkpt>
<trkpt lat="46.4757" lon="6.78365"><ele>435.8</ele><time>2016-07-01T13:45:55Z</time></trkpt>
<trkpt lat="46.47569" lon="6.78395"><ele>433</ele><time>2016-07-01T13:45:58Z</time></trkpt>
<trkpt lat="46.47566" lon="6.78406"><ele>431.6</ele><time>2016-07-01T13:45:59Z</time></trkpt>
<trkpt lat="46.4756" lon="6.78432"><ele>427.8</ele><time>2016-07-01T13:46:01Z</time></trkpt>
<trkpt lat="46.47553" lon="6.78456"><ele>426.2</ele><time>2016-07-01T13:46:03Z</time></trkpt>
<trkpt lat="46.47546" lon="6.7847"><ele>425.8</ele><time>2016-07-01T13:46:05Z</time></trkpt>
<trkpt lat="46.47541" lon="6.78481"><ele>425</ele><time>2016-07-01T13:46:08Z</time></trkpt>
<trkpt lat="46.47538" lon="6.78489"><ele>424.6</ele><time>2016-07-01T13:46:10Z</time></trkpt>
<trkpt lat="46.47529" lon="6.78506"><ele>422.8</ele><time>2016-07-01T13:46:13Z</time></trkpt>
<trkpt lat="46.47537" lon="6.78536"><ele>419</ele><time>2016-07-01T13:46:17Z</time></trkpt>
<trkpt lat="46.47559" lon="6.78555"><ele>416.2</ele><time>2016-07-01T13:46:20Z</time></trkpt>
<trkpt lat="46.47568" lon="6.78563"><ele>415.8</ele><time>2016-07-01T13:46:21Z</time></trkpt>
<trkpt lat="46.47575" lon="6.78572"><ele>416.4</ele><time>2016-07-01T13:46:22Z</time></trkpt>
<trkpt lat="46.47582" lon="6.78596"><ele>418.2</ele><time>2016-07-01T13:46:25Z</time></trkpt>
<trkpt lat="46.47581" lon="6.78616"><ele>418.8</ele><time>2016-07-01T13:46:28Z</time></trkpt>
<trkpt lat="46.47579" lon="6.78647"><ele>418.8</ele><time>2016-07-01T13:46:32Z</time></trkpt>
<trkpt lat="46.47577" lon="6.78675"><ele>418.8</ele><time>2016-07-01T13:46:35Z</time></trkpt>
<trkpt lat="46.47576" lon="6.78706"><ele>419.4</ele><time>2016-07-01T13:46:38Z</time></trkpt>
<trkpt lat="46.47575" lon="6.78724"><ele>420.4</ele><time>2016-07-01T13:46:40Z</time></trkpt>
<trkpt lat="46.47573" lon="6.78737"><ele>421.2</ele><time>2016-07-01T13:46:42Z</time></trkpt>
<trkpt lat="46.47566" lon="6.78765"><ele>420</ele><time>2016-07-01T13:46:46Z</time></trkpt>
<trkpt lat="46.4756" lon="6.78791"><ele>418.4</ele><time>2016-07-01T13:46:49Z</time></trkpt>
<trkpt lat="46.47556" lon="6.78823"><ele>416.4</ele><time>2016-07-01T13:46:52Z</time></trkpt>
<trkpt lat="46.47555" lon="6.78858"><ele>415</ele><time>2016-07-01T13:46:55Z</time></trkpt>
<trkpt lat="46.47553" lon="6.78883"><ele>413.4</ele><time>2016-07-01T13:46:57Z</time></trkpt>
<trkpt lat="46.47546" lon="6.78908"><ele>412</ele><time>2016-07-01T13:46:59Z</time></trkpt>
<trkpt lat="46.4754" lon="6.78934"><ele>411</ele><time>2016-07-01T13:47:01Z</time></trkpt>
<trkpt lat="46.47534" lon="6.78957"><ele>410.4</ele><time>2016-07-01T13:47:03Z</time></trkpt>
<trkpt lat="46.4753" lon="6.78967"><ele>410.2</ele><time>2016-07-01T13:47:04Z</time></trkpt>
<trkpt lat="46.47518" lon="6.78993"><ele>409.2</ele><time>2016-07-01T13:47:07Z</time></trkpt>
<trkpt lat="46.4751" lon="6.79008"><ele>409.6</ele><time>2016-07-01T13:47:09Z</time></trkpt>
<trkpt lat="46.47499" lon="6.7903"><ele>409.2</ele><time>2016-07-01T13:47:12Z</time></trkpt>
<trkpt lat="46.47496" lon="6.79039"><ele>408.6</ele><time>2016-07-01T13:47:13Z</time></trkpt>
<trkpt lat="46.47486" lon="6.79069"><ele>407.8</ele><time>2016-07-01T13:47:16Z</time></trkpt>
<trkpt lat="46.4748" lon="6.79088"><ele>407.8</ele><time>2016-07-01T13:47:18Z</time></trkpt>
<trkpt lat="46.47472" lon="6.79116"><ele>408</ele><time>2016-07-01T13:47:21Z</time></trkpt>
<trkpt lat="46.47467" lon="6.79134"><ele>408.6</ele><time>2016-07-01T13:47:23Z</time></trkpt>
<trkpt lat="46.47466" lon="6.79142"><ele>409</ele><time>2016-07-01T13:47:24Z</time></trkpt>
<trkpt lat="46.47462" lon="6.79168"><ele>411.4</ele><time>2016-07-01T13:47:28Z</time></trkpt>
<trkpt lat="46.47461" lon="6.79172"><ele>412</ele><time>2016-07-01T13:47:29Z</time></trkpt>
<trkpt lat="46.47461" lon="6.79181"><ele>412.8</ele><time>2016-07-01T13:47:32Z</time></trkpt>
<trkpt lat="46.4746" lon="6.79192"><ele>414.2</ele><time>2016-07-01T13:47:36Z</time></trkpt>
<trkpt lat="46.47457" lon="6.79209"><ele>416.4</ele><time>2016-07-01T13:47:43Z</time></trkpt>
<trkpt lat="46.47451" lon="6.79236"><ele>418.2</ele><time>2016-07-01T13:47:53Z</time></trkpt>
<trkpt lat="46.47445" lon="6.79262"><ele>419.2</ele><time>2016-07-01T13:48:00Z</time></trkpt>
<trkpt lat="46.47439" lon="6.7929"><ele>421.4</ele><time>2016-07-01T13:48:08Z</time></trkpt>
<trkpt lat="46.47436" lon="6.79306"><ele>422.6</ele><time>2016-07-01T13:48:13Z</time></trkpt>
<trkpt lat="46.47434" lon="6.79332"><ele>425.2</ele><time>2016-07-01T13:48:22Z</time></trkpt>
<trkpt lat="46.47433" lon="6.79345"><ele>426.4</ele><time>2016-07-01T13:48:27Z</time></trkpt>
<trkpt lat="46.47427" lon="6.79372"><ele>428.4</ele><time>2016-07-01T13:48:37Z</time></trkpt>
<trkpt lat="46.47428" lon="6.79403"><ele>431.8</ele><time>2016-07-01T13:48:51Z</time></trkpt>
<trkpt lat="46.47429" lon="6.79403"><ele>432</ele><time>2016-07-01T13:48:52Z</time></trkpt>
<trkpt lat="46.47434" lon="6.79398"><ele>433.2</ele><time>2016-07-01T13:48:57Z</time></trkpt>
<trkpt lat="46.47441" lon="6.79382"><ele>435.8</ele><time>2016-07-01T13:49:08Z</time></trkpt>
<trkpt lat="46.47447" lon="6.79367"><ele>437.8</ele><time>2016-07-01T13:49:19Z</time></trkpt>
<trkpt lat="46.47453" lon="6.79355"><ele>438.8</ele><time>2016-07-01T13:49:27Z</time></trkpt>
<trkpt lat="46.47462" lon="6.79332"><ele>440.8</ele><time>2016-07-01T13:49:43Z</time></trkpt>
<trkpt lat="46.47472" lon="6.79309"><ele>443</ele><time>2016-07-01T13:49:58Z</time></trkpt>
<trkpt lat="46.47482" lon="6.79283"><ele>443.4</ele><time>2016-07-01T13:50:06Z</time></trkpt>
<trkpt lat="46.47492" lon="6.79254"><ele>443</ele><time>2016-07-01T13:50:11Z</time></trkpt>
<trkpt lat="46.47501" lon="6.79229"><ele>442.6</ele><time>2016-07-01T13:50:15Z</time></trkpt>
<trkpt lat="46.47503" lon="6.79223"><ele>442.6</ele><time>2016-07-01T13:50:16Z</time></trkpt>
<trkpt lat="46.47509" lon="6.79198"><ele>442.4</ele><time>2016-07-01T13:50:20Z</time></trkpt>
<trkpt lat="46.47515" lon="6.79171"><ele>442.8</ele><time>2016-07-01T13:50:24Z</time></trkpt>
<trkpt lat="46.47522" lon="6.79143"><ele>443.2</ele><time>2016-07-01T13:50:28Z</time></trkpt>
<trkpt lat="46.47531" lon="6.79117"><ele>443.6</ele><time>2016-07-01T13:50:32Z</time></trkpt>
<trkpt lat="46.47541" lon="6.79092"><ele>444.8</ele><time>2016-07-01T13:50:36Z</time></trkpt>
<trkpt lat="46.47551" lon="6.79068"><ele>445.4</ele><time>2016-07-01T13:50:40Z</time></trkpt>
<trkpt lat="46.47565" lon="6.79045"><ele>446.8</ele><time>2016-07-01T13:50:45Z</time></trkpt>
<trkpt lat="46.47578" lon="6.79026"><ele>448.2</ele><time>2016-07-01T13:50:50Z</time></trkpt>
<trkpt lat="46.47591" lon="6.79006"><ele>449.6</ele><time>2016-07-01T13:50:56Z</time></trkpt>
<trkpt lat="46.47599" lon="6.78993"><ele>450.6</ele><time>2016-07-01T13:51:00Z</time></trkpt>
<trkpt lat="46.47611" lon="6.78974"><ele>452</ele><time>2016-07-01T13:51:06Z</time></trkpt>
<trkpt lat="46.47622" lon="6.78953"><ele>453</ele><time>2016-07-01T13:51:12Z</time></trkpt>
<trkpt lat="46.47633" lon="6.78932"><ele>455.2</ele><time>2016-07-01T13:51:18Z</time></trkpt>
<trkpt lat="46.47643" lon="6.7891"><ele>455.4</ele><time>2016-07-01T13:51:24Z</time></trkpt>
<trkpt lat="46.47649" lon="6.7889"><ele>456.4</ele><time>2016-07-01T13:51:29Z</time></trkpt>
<trkpt lat="46.47654" lon="6.78865"><ele>458</ele><time>2016-07-01T13:51:35Z</time></trkpt>
<trkpt lat="46.47658" lon="6.78838"><ele>458.4</ele><time>2016-07-01T13:51:41Z</time></trkpt>
<trkpt lat="46.47664" lon="6.78812"><ele>459.8</ele><time>2016-07-01T13:51:47Z</time></trkpt>
<trkpt lat="46.4767" lon="6.78786"><ele>461.2</ele><time>2016-07-01T13:51:53Z</time></trkpt>
<trkpt lat="46.47679" lon="6.78742"><ele>463.2</ele><time>2016-07-01T13:52:03Z</time></trkpt>
<trkpt lat="46.47686" lon="6.78716"><ele>463.4</ele><time>2016-07-01T13:52:09Z</time></trkpt>
<trkpt lat="46.47692" lon="6.78689"><ele>464</ele><time>2016-07-01T13:52:15Z</time></trkpt>
<trkpt lat="46.47697" lon="6.78663"><ele>465.4</ele><time>2016-07-01T13:52:21Z</time></trkpt>
<trkpt lat="46.47702" lon="6.78635"><ele>466.4</ele><time>2016-07-01T13:52:28Z</time></trkpt>
<trkpt lat="46.47705" lon="6.78609"><ele>467.4</ele><time>2016-07-01T13:52:35Z</time></trkpt>
<trkpt lat="46.47708" lon="6.78581"><ele>469.4</ele><time>2016-07-01T13:52:43Z</time></trkpt>
<trkpt lat="46.47712" lon="6.78552"><ele>471</ele><time>2016-07-01T13:52:51Z</time></trkpt>
<trkpt lat="46.47719" lon="6.78509"><ele>473</ele><time>2016-07-01T13:53:03Z</time></trkpt>
<trkpt lat="46.47727" lon="6.78482"><ele>474.4</ele><time>2016-07-01T13:53:11Z</time></trkpt>
<trkpt lat="46.47734" lon="6.78457"><ele>475.6</ele><time>2016-07-01T13:53:18Z</time></trkpt>
<trkpt lat="46.47743" lon="6.78432"><ele>477</ele><time>2016-07-01T13:53:26Z</time></trkpt>
<trkpt lat="46.47751" lon="6.78407"><ele>478.8</ele><time>2016-07-01T13:53:34Z</time></trkpt>
<trkpt lat="46.47761" lon="6.78381"><ele>479.6</ele><time>2016-07-01T13:53:42Z</time></trkpt>
<trkpt lat="46.4777" lon="6.78358"><ele>480.4</ele><time>2016-07-01T13:53:49Z</time></trkpt>
<trkpt lat="46.47776" lon="6.78345"><ele>480.8</ele><time>2016-07-01T13:53:53Z</time></trkpt>
<trkpt lat="46.47778" lon="6.78342"><ele>481</ele><time>2016-07-01T13:53:54Z</time></trkpt>
<trkpt lat="46.47788" lon="6.78318"><ele>482</ele><time>2016-07-01T13:54:01Z</time></trkpt>
<trkpt lat="46.47798" lon="6.78295"><ele>484</ele><time>2016-07-01T13:54:08Z</time></trkpt>
<trkpt lat="46.47815" lon="6.78257"><ele>484.6</ele><time>2016-07-01T13:54:19Z</time></trkpt>
<trkpt lat="46.47826" lon="6.78235"><ele>486.2</ele><time>2016-07-01T13:54:26Z</time></trkpt>
<trkpt lat="46.47837" lon="6.7821"><ele>488.2</ele><time>2016-07-01T13:54:34Z</time></trkpt>
<trkpt lat="46.47845" lon="6.78186"><ele>490.8</ele><time>2016-07-01T13:54:41Z</time></trkpt>
<trkpt lat="46.47841" lon="6.7816"><ele>493</ele><time>2016-07-01T13:54:49Z</time></trkpt>
<trkpt lat="46.47834" lon="6.78138"><ele>494.8</ele><time>2016-07-01T13:54:56Z</time></trkpt>
<trkpt lat="46.47835" lon="6.78118"><ele>497.4</ele><time>2016-07-01T13:55:07Z</time></trkpt>
<trkpt lat="46.47857" lon="6.78107"><ele>501.2</ele><time>2016-07-01T13:55:27Z</time></trkpt>
<trkpt lat="46.47865" lon="6.78103"><ele>502.6</ele><time>2016-07-01T13:55:34Z</time></trkpt>
<trkpt lat="46.4788" lon="6.78087"><ele>506.4</ele><time>2016-07-01T13:55:50Z</time></trkpt>
<trkpt lat="46.47882" lon="6.78084"><ele>507</ele><time>2016-07-01T13:55:53Z</time></trkpt>
<trkpt lat="46.47894" lon="6.78063"><ele>509.2</ele><time>2016-07-01T13:56:11Z</time></trkpt>
<trkpt lat="46.47902" lon="6.78045"><ele>510</ele><time>2016-07-01T13:56:24Z</time></trkpt>
<trkpt lat="46.47906" lon="6.78038"><ele>510.6</ele><time>2016-07-01T13:56:30Z</time></trkpt>
<trkpt lat="46.47918" lon="6.78016"><ele>512.2</ele><time>2016-07-01T13:56:46Z</time></trkpt>
<trkpt lat="46.47929" lon="6.77994"><ele>513.4</ele><time>2016-07-01T13:57:01Z</time></trkpt>
<trkpt lat="46.47938" lon="6.77977"><ele>515.2</ele><time>2016-07-01T13:57:13Z</time></trkpt>
<trkpt lat="46.47945" lon="6.77986"><ele>516</ele><time>2016-07-01T13:57:18Z</time></trkpt>
<trkpt lat="46.47947" lon="6.77999"><ele>517</ele><time>2016-07-01T13:57:23Z</time></trkpt>
<trkpt lat="46.47953" lon="6.78038"><ele>516.6</ele><time>2016-07-01T13:57:33Z</time></trkpt>
<trkpt lat="46.47957" lon="6.78061"><ele>516.4</ele><time>2016-07-01T13:57:37Z</time></trkpt>
<trkpt lat="46.47962" lon="6.78087"><ele>516.2</ele><time>2016-07-01T13:57:41Z</time></trkpt>
<trkpt lat="46.47968" lon="6.78116"><ele>517.6</ele><time>2016-07-01T13:57:45Z</time></trkpt>
<trkpt lat="46.47974" lon="6.78142"><ele>519.2</ele><time>2016-07-01T13:57:49Z</time></trkpt>
<trkpt lat="46.47977" lon="6.78164"><ele>520.2</ele><time>2016-07-01T13:57:53Z</time></trkpt>
<trkpt lat="46.47979" lon="6.78196"><ele>521.2</ele><time>2016-07-01T13:57:59Z</time></trkpt>
<trkpt lat="46.47964" lon="6.78225"><ele>520.4</ele><time>2016-07-01T13:58:03Z</time></trkpt>
<trkpt lat="46.47944" lon="6.78247"><ele>520.4</ele><time>2016-07-01T13:58:06Z</time></trkpt>
<trkpt lat="46.47937" lon="6.78253"><ele>520.4</ele><time>2016-07-01T13:58:07Z</time></trkpt>
<trkpt lat="46.47914" lon="6.7827"><ele>517.8</ele><time>2016-07-01T13:58:10Z</time></trkpt>
<trkpt lat="46.47894" lon="6.78297"><ele>514.8</ele><time>2016-07-01T13:58:13Z</time></trkpt>
<trkpt lat="46.47886" lon="6.78306"><ele>514.2</ele><time>2016-07-01T13:58:14Z</time></trkpt>
<trkpt lat="46.47869" lon="6.78327"><ele>512.8</ele><time>2016-07-01T13:58:16Z</time></trkpt>
<trkpt lat="46.47851" lon="6.78348"><ele>512.2</ele><time>2016-07-01T13:58:18Z</time></trkpt>
<trkpt lat="46.47844" lon="6.78359"><ele>511.8</ele><time>2016-07-01T13:58:19Z</time></trkpt>
<trkpt lat="46.47832" lon="6.78378"><ele>511</ele><time>2016-07-01T13:58:21Z</time></trkpt>
<trkpt lat="46.4782" lon="6.78398"><ele>509</ele><time>2016-07-01T13:58:23Z</time></trkpt>
<trkpt lat="46.47812" lon="6.7842"><ele>506.2</ele><time>2016-07-01T13:58:25Z</time></trkpt>
<trkpt lat="46.47808" lon="6.78448"><ele>503.6</ele><time>2016-07-01T13:58:27Z</time></trkpt>
<trkpt lat="46.47807" lon="6.78479"><ele>501.2</ele><time>2016-07-01T13:58:29Z</time></trkpt>
<trkpt lat="46.47808" lon="6.78511"><ele>500</ele><time>2016-07-01T13:58:31Z</time></trkpt>
<trkpt lat="46.47807" lon="6.78541"><ele>497.8</ele><time>2016-07-01T13:58:33Z</time></trkpt>
<trkpt lat="46.47806" lon="6.78571"><ele>498</ele><time>2016-07-01T13:58:35Z</time></trkpt>
<trkpt lat="46.47803" lon="6.786"><ele>498.4</ele><time>2016-07-01T13:58:37Z</time></trkpt>
<trkpt lat="46.47796" lon="6.78634"><ele>499.4</ele><time>2016-07-01T13:58:40Z</time></trkpt>
<trkpt lat="46.4779" lon="6.78661"><ele>500.4</ele><time>2016-07-01T13:58:43Z</time></trkpt>
<trkpt lat="46.47784" lon="6.78691"><ele>501.2</ele><time>2016-07-01T13:58:47Z</time></trkpt>
<trkpt lat="46.47778" lon="6.78716"><ele>499.8</ele><time>2016-07-01T13:58:50Z</time></trkpt>
<trkpt lat="46.47772" lon="6.78746"><ele>498.4</ele><time>2016-07-01T13:58:53Z</time></trkpt>
<trkpt lat="46.47764" lon="6.78779"><ele>497.4</ele><time>2016-07-01T13:58:56Z</time></trkpt>
<trkpt lat="46.47759" lon="6.788"><ele>497.6</ele><time>2016-07-01T13:58:58Z</time></trkpt>
<trkpt lat="46.47747" lon="6.78824"><ele>498.2</ele><time>2016-07-01T13:59:01Z</time></trkpt>
<trkpt lat="46.47744" lon="6.78832"><ele>498.2</ele><time>2016-07-01T13:59:02Z</time></trkpt>
<trkpt lat="46.47738" lon="6.78858"><ele>497.8</ele><time>2016-07-01T13:59:05Z</time></trkpt>
<trkpt lat="46.47732" lon="6.78885"><ele>497.2</ele><time>2016-07-01T13:59:08Z</time></trkpt>
<trkpt lat="46.47723" lon="6.78914"><ele>495.8</ele><time>2016-07-01T13:59:11Z</time></trkpt>
<trkpt lat="46.4772" lon="6.78924"><ele>495</ele><time>2016-07-01T13:59:12Z</time></trkpt>
<trkpt lat="46.47711" lon="6.78944"><ele>493.8</ele><time>2016-07-01T13:59:14Z</time></trkpt>
<trkpt lat="46.47693" lon="6.78969"><ele>492.2</ele><time>2016-07-01T13:59:17Z</time></trkpt>
<trkpt lat="46.47683" lon="6.79001"><ele>491</ele><time>2016-07-01T13:59:20Z</time></trkpt>
<trkpt lat="46.47683" lon="6.79022"><ele>492</ele><time>2016-07-01T13:59:22Z</time></trkpt>
<trkpt lat="46.47684" lon="6.79028"><ele>492.6</ele><time>2016-07-01T13:59:23Z</time></trkpt>
<trkpt lat="46.47694" lon="6.7903"><ele>492.8</ele><time>2016-07-01T13:59:32Z</time></trkpt>
<trkpt lat="46.47695" lon="6.79028"><ele>492.8</ele><time>2016-07-01T13:59:33Z</time></trkpt>
<trkpt lat="46.47706" lon="6.79012"><ele>493.6</ele><time>2016-07-01T13:59:45Z</time></trkpt>
<trkpt lat="46.47715" lon="6.78993"><ele>495.4</ele><time>2016-07-01T13:59:57Z</time></trkpt>
<trkpt lat="46.47717" lon="6.7899"><ele>495.8</ele><time>2016-07-01T13:59:59Z</time></trkpt>
<trkpt lat="46.47719" lon="6.78983"><ele>497.2</ele><time>2016-07-01T14:00:04Z</time></trkpt>
<trkpt lat="46.4772" lon="6.7898"><ele>497.6</ele><time>2016-07-01T14:00:06Z</time></trkpt>
<trkpt lat="46.47722" lon="6.78971"><ele>499</ele><time>2016-07-01T14:00:12Z</time></trkpt>
<trkpt lat="46.47726" lon="6.78962"><ele>500.8</ele><time>2016-07-01T14:00:18Z</time></trkpt>
<trkpt lat="46.47727" lon="6.78961"><ele>501</ele><time>2016-07-01T14:00:19Z</time></trkpt>
<trkpt lat="46.4773" lon="6.78956"><ele>501.8</ele><time>2016-07-01T14:00:23Z</time></trkpt>
<trkpt lat="46.47731" lon="6.78953"><ele>502.2</ele><time>2016-07-01T14:00:25Z</time></trkpt>
<trkpt lat="46.47732" lon="6.78952"><ele>502.4</ele><time>2016-07-01T14:00:26Z</time></trkpt>
<trkpt lat="46.47733" lon="6.78948"><ele>502.8</ele><time>2016-07-01T14:00:28Z</time></trkpt>
<trkpt lat="46.47733" lon="6.78946"><ele>503</ele><time>2016-07-01T14:00:29Z</time></trkpt>
<trkpt lat="46.47735" lon="6.78942"><ele>503.8</ele><time>2016-07-01T14:00:32Z</time></trkpt>
<trkpt lat="46.47747" lon="6.78922"><ele>506.6</ele><time>2016-07-01T14:00:48Z</time></trkpt>
<trkpt lat="46.47761" lon="6.78905"><ele>508.4</ele><time>2016-07-01T14:01:03Z</time></trkpt>
<trkpt lat="46.47765" lon="6.78899"><ele>509</ele><time>2016-07-01T14:01:08Z</time></trkpt>
<trkpt lat="46.47777" lon="6.78879"><ele>511.4</ele><time>2016-07-01T14:01:24Z</time></trkpt>
<trkpt lat="46.47784" lon="6.78866"><ele>512.8</ele><time>2016-07-01T14:01:33Z</time></trkpt>
<trkpt lat="46.47784" lon="6.78865"><ele>513</ele><time>2016-07-01T14:01:34Z</time></trkpt>
<trkpt lat="46.47787" lon="6.7886"><ele>514</ele><time>2016-07-01T14:01:39Z</time></trkpt>
<trkpt lat="46.47793" lon="6.78855"><ele>515</ele><time>2016-07-01T14:01:45Z</time></trkpt>
<trkpt lat="46.47803" lon="6.78833"><ele>517</ele><time>2016-07-01T14:01:59Z</time></trkpt>
<trkpt lat="46.47816" lon="6.78815"><ele>519.8</ele><time>2016-07-01T14:02:13Z</time></trkpt>
<trkpt lat="46.47825" lon="6.78803"><ele>522</ele><time>2016-07-01T14:02:23Z</time></trkpt>
<trkpt lat="46.47828" lon="6.78816"><ele>524.4</ele><time>2016-07-01T14:02:39Z</time></trkpt>
<trkpt lat="46.47823" lon="6.7883"><ele>524.2</ele><time>2016-07-01T14:02:43Z</time></trkpt>
<trkpt lat="46.47814" lon="6.78854"><ele>524.4</ele><time>2016-07-01T14:02:49Z</time></trkpt>
<trkpt lat="46.47809" lon="6.78869"><ele>523.8</ele><time>2016-07-01T14:02:52Z</time></trkpt>
<trkpt lat="46.47805" lon="6.78885"><ele>523.4</ele><time>2016-07-01T14:02:55Z</time></trkpt>
<trkpt lat="46.47803" lon="6.78911"><ele>522.6</ele><time>2016-07-01T14:02:59Z</time></trkpt>
<trkpt lat="46.47801" lon="6.78924"><ele>523.2</ele><time>2016-07-01T14:03:02Z</time></trkpt>
<trkpt lat="46.47798" lon="6.78951"><ele>524.8</ele><time>2016-07-01T14:03:10Z</time></trkpt>
<trkpt lat="46.47794" lon="6.78977"><ele>525.6</ele><time>2016-07-01T14:03:16Z</time></trkpt>
<trkpt lat="46.4779" lon="6.79007"><ele>526</ele><time>2016-07-01T14:03:22Z</time></trkpt>
<trkpt lat="46.47795" lon="6.79036"><ele>527.2</ele><time>2016-07-01T14:03:28Z</time></trkpt>
<trkpt lat="46.47793" lon="6.79066"><ele>527.6</ele><time>2016-07-01T14:03:34Z</time></trkpt>
<trkpt lat="46.47787" lon="6.79091"><ele>528.6</ele><time>2016-07-01T14:03:40Z</time></trkpt>
<trkpt lat="46.47781" lon="6.79118"><ele>531</ele><time>2016-07-01T14:03:49Z</time></trkpt>
<trkpt lat="46.47781" lon="6.79124"><ele>531.2</ele><time>2016-07-01T14:03:51Z</time></trkpt>
<trkpt lat="46.47777" lon="6.7915"><ele>531.6</ele><time>2016-07-01T14:03:58Z</time></trkpt>
<trkpt lat="46.47766" lon="6.79173"><ele>532</ele><time>2016-07-01T14:04:04Z</time></trkpt>
<trkpt lat="46.47753" lon="6.79195"><ele>532.2</ele><time>2016-07-01T14:04:10Z</time></trkpt>
<trkpt lat="46.47741" lon="6.79217"><ele>534.2</ele><time>2016-07-01T14:04:16Z</time></trkpt>
<trkpt lat="46.47731" lon="6.79241"><ele>534.8</ele><time>2016-07-01T14:04:22Z</time></trkpt>
<trkpt lat="46.47728" lon="6.79267"><ele>535.2</ele><time>2016-07-01T14:04:28Z</time></trkpt>
<trkpt lat="46.47726" lon="6.79295"><ele>536.8</ele><time>2016-07-01T14:04:36Z</time></trkpt>
<trkpt lat="46.47722" lon="6.79321"><ele>537.8</ele><time>2016-07-01T14:04:46Z</time></trkpt>
<trkpt lat="46.47716" lon="6.79347"><ele>540.4</ele><time>2016-07-01T14:04:57Z</time></trkpt>
<trkpt lat="46.47709" lon="6.79373"><ele>543.4</ele><time>2016-07-01T14:05:08Z</time></trkpt>
<trkpt lat="46.47694" lon="6.79401"><ele>547.6</ele><time>2016-07-01T14:05:23Z</time></trkpt>
<trkpt lat="46.47683" lon="6.79422"><ele>550.2</ele><time>2016-07-01T14:05:34Z</time></trkpt>
<trkpt lat="46.47677" lon="6.79448"><ele>552</ele><time>2016-07-01T14:05:46Z</time></trkpt>
<trkpt lat="46.47679" lon="6.79475"><ele>553.6</ele><time>2016-07-01T14:05:57Z</time></trkpt>
<trkpt lat="46.47677" lon="6.79502"><ele>556</ele><time>2016-07-01T14:06:08Z</time></trkpt>
<trkpt lat="46.47661" lon="6.79534"><ele>556.4</ele><time>2016-07-01T14:06:18Z</time></trkpt>
<trkpt lat="46.47654" lon="6.7956"><ele>556.6</ele><time>2016-07-01T14:06:25Z</time></trkpt>
<trkpt lat="46.4765" lon="6.79578"><ele>557.8</ele><time>2016-07-01T14:06:30Z</time></trkpt>
<trkpt lat="46.47644" lon="6.79605"><ele>558.6</ele><time>2016-07-01T14:06:38Z</time></trkpt>
<trkpt lat="46.47636" lon="6.79631"><ele>559</ele><time>2016-07-01T14:06:46Z</time></trkpt>
<trkpt lat="46.47632" lon="6.79641"><ele>559.6</ele><time>2016-07-01T14:06:49Z</time></trkpt>
<trkpt lat="46.47621" lon="6.79664"><ele>557.2</ele><time>2016-07-01T14:06:54Z</time></trkpt>
<trkpt lat="46.47615" lon="6.79687"><ele>556</ele><time>2016-07-01T14:06:57Z</time></trkpt>
<trkpt lat="46.47615" lon="6.79716"><ele>554.4</ele><time>2016-07-01T14:07:00Z</time></trkpt>
<trkpt lat="46.47611" lon="6.79747"><ele>552.8</ele><time>2016-07-01T14:07:03Z</time></trkpt>
<trkpt lat="46.47596" lon="6.79769"><ele>550.8</ele><time>2016-07-01T14:07:06Z</time></trkpt>
<trkpt lat="46.47591" lon="6.79776"><ele>550.4</ele><time>2016-07-01T14:07:07Z</time></trkpt>
<trkpt lat="46.47581" lon="6.79799"><ele>550.4</ele><time>2016-07-01T14:07:10Z</time></trkpt>
<trkpt lat="46.47578" lon="6.79815"><ele>550.2</ele><time>2016-07-01T14:07:12Z</time></trkpt>
<trkpt lat="46.47574" lon="6.79842"><ele>550.4</ele><time>2016-07-01T14:07:16Z</time></trkpt>
<trkpt lat="46.47575" lon="6.79872"><ele>550.6</ele><time>2016-07-01T14:07:21Z</time></trkpt>
<trkpt lat="46.47584" lon="6.79895"><ele>550.4</ele><time>2016-07-01T14:07:25Z</time></trkpt>
<trkpt lat="46.47599" lon="6.79913"><ele>550.6</ele><time>2016-07-01T14:07:29Z</time></trkpt>
<trkpt lat="46.47606" lon="6.79936"><ele>551.4</ele><time>2016-07-01T14:07:33Z</time></trkpt>
<trkpt lat="46.47605" lon="6.79941"><ele>551.8</ele><time>2016-07-01T14:07:34Z</time></trkpt>
<trkpt lat="46.47594" lon="6.79956"><ele>553.6</ele><time>2016-07-01T14:07:40Z</time></trkpt>
<trkpt lat="46.47589" lon="6.79963"><ele>554.8</ele><time>2016-07-01T14:07:43Z</time></trkpt>
<trkpt lat="46.47586" lon="6.79974"><ele>556.2</ele><time>2016-07-01T14:07:47Z</time></trkpt>
<trkpt lat="46.47583" lon="6.79995"><ele>554.4</ele><time>2016-07-01T14:07:54Z</time></trkpt>
<trkpt lat="46.47583" lon="6.79999"><ele>554.2</ele><time>2016-07-01T14:07:55Z</time></trkpt>
<trkpt lat="46.47579" lon="6.80026"><ele>553.6</ele><time>2016-07-01T14:08:02Z</time></trkpt>
<trkpt lat="46.47575" lon="6.80055"><ele>553.4</ele><time>2016-07-01T14:08:09Z</time></trkpt>
<trkpt lat="46.47571" lon="6.80081"><ele>553.6</ele><time>2016-07-01T14:08:14Z</time></trkpt>
<trkpt lat="46.47566" lon="6.80098"><ele>553.4</ele><time>2016-07-01T14:08:17Z</time></trkpt>
<trkpt lat="46.47559" lon="6.80118"><ele>552</ele><time>2016-07-01T14:08:20Z</time></trkpt>
<trkpt lat="46.47551" lon="6.80143"><ele>550</ele><time>2016-07-01T14:08:23Z</time></trkpt>
<trkpt lat="46.47546" lon="6.80159"><ele>548.2</ele><time>2016-07-01T14:08:25Z</time></trkpt>
<trkpt lat="46.47537" lon="6.80185"><ele>545.4</ele><time>2016-07-01T14:08:28Z</time></trkpt>
<trkpt lat="46.4753" lon="6.80212"><ele>543</ele><time>2016-07-01T14:08:31Z</time></trkpt>
<trkpt lat="46.47525" lon="6.80232"><ele>541.6</ele><time>2016-07-01T14:08:33Z</time></trkpt>
<trkpt lat="46.47519" lon="6.80253"><ele>540</ele><time>2016-07-01T14:08:35Z</time></trkpt>
<trkpt lat="46.47513" lon="6.80289"><ele>538</ele><time>2016-07-01T14:08:38Z</time></trkpt>
<trkpt lat="46.47511" lon="6.80326"><ele>536.2</ele><time>2016-07-01T14:08:41Z</time></trkpt>
<trkpt lat="46.4751" lon="6.80364"><ele>534.6</ele><time>2016-07-01T14:08:44Z</time></trkpt>
<trkpt lat="46.47506" lon="6.80399"><ele>533.2</ele><time>2016-07-01T14:08:47Z</time></trkpt>
<trkpt lat="46.47504" lon="6.8041"><ele>533</ele><time>2016-07-01T14:08:48Z</time></trkpt>
<trkpt lat="46.47498" lon="6.8043"><ele>532.6</ele><time>2016-07-01T14:08:50Z</time></trkpt>
<trkpt lat="46.47492" lon="6.80457"><ele>532.4</ele><time>2016-07-01T14:08:53Z</time></trkpt>
<trkpt lat="46.47484" lon="6.80488"><ele>534</ele><time>2016-07-01T14:08:57Z</time></trkpt>
<trkpt lat="46.47478" lon="6.80508"><ele>534.2</ele><time>2016-07-01T14:09:00Z</time></trkpt>
<trkpt lat="46.47476" lon="6.80514"><ele>534</ele><time>2016-07-01T14:09:01Z</time></trkpt>
<trkpt lat="46.47472" lon="6.8054"><ele>532.6</ele><time>2016-07-01T14:09:04Z</time></trkpt>
<trkpt lat="46.47467" lon="6.80565"><ele>530.6</ele><time>2016-07-01T14:09:06Z</time></trkpt>
<trkpt lat="46.47457" lon="6.80591"><ele>529.8</ele><time>2016-07-01T14:09:08Z</time></trkpt>
<trkpt lat="46.47443" lon="6.80617"><ele>528.6</ele><time>2016-07-01T14:09:10Z</time></trkpt>
<trkpt lat="46.4743" lon="6.80644"><ele>526.8</ele><time>2016-07-01T14:09:12Z</time></trkpt>
<trkpt lat="46.47418" lon="6.80668"><ele>525.6</ele><time>2016-07-01T14:09:14Z</time></trkpt>
<trkpt lat="46.47412" lon="6.80677"><ele>525</ele><time>2016-07-01T14:09:15Z</time></trkpt>
<trkpt lat="46.47395" lon="6.80699"><ele>523.4</ele><time>2016-07-01T14:09:18Z</time></trkpt>
<trkpt lat="46.47388" lon="6.80731"><ele>524.4</ele><time>2016-07-01T14:09:22Z</time></trkpt>
<trkpt lat="46.47388" lon="6.80745"><ele>524.8</ele><time>2016-07-01T14:09:24Z</time></trkpt>
<trkpt lat="46.47388" lon="6.80751"><ele>524.8</ele><time>2016-07-01T14:09:25Z</time></trkpt>
<trkpt lat="46.4739" lon="6.80773"><ele>525.4</ele><time>2016-07-01T14:09:30Z</time></trkpt>
<trkpt lat="46.47393" lon="6.8079"><ele>526.4</ele><time>2016-07-01T14:09:35Z</time></trkpt>
<trkpt lat="46.47395" lon="6.8081"><ele>526.8</ele><time>2016-07-01T14:09:41Z</time></trkpt>
<trkpt lat="46.47395" lon="6.80813"><ele>527</ele><time>2016-07-01T14:09:42Z</time></trkpt>
<trkpt lat="46.47392" lon="6.80828"><ele>526.2</ele><time>2016-07-01T14:09:46Z</time></trkpt>
<trkpt lat="46.47391" lon="6.80834"><ele>525.2</ele><time>2016-07-01T14:09:47Z</time></trkpt>
<trkpt lat="46.47389" lon="6.80849"><ele>521</ele><time>2016-07-01T14:09:49Z</time></trkpt>
<trkpt lat="46.47385" lon="6.80882"><ele>517.8</ele><time>2016-07-01T14:09:52Z</time></trkpt>
<trkpt lat="46.47383" lon="6.80907"><ele>516.6</ele><time>2016-07-01T14:09:54Z</time></trkpt>
<trkpt lat="46.47385" lon="6.80945"><ele>516.2</ele><time>2016-07-01T14:09:57Z</time></trkpt>
<trkpt lat="46.47388" lon="6.80981"><ele>516.8</ele><time>2016-07-01T14:10:00Z</time></trkpt>
<trkpt lat="46.4739" lon="6.81014"><ele>517.2</ele><time>2016-07-01T14:10:03Z</time></trkpt>
<trkpt lat="46.47393" lon="6.81046"><ele>517</ele><time>2016-07-01T14:10:06Z</time></trkpt>
<trkpt lat="46.47395" lon="6.81076"><ele>517.6</ele><time>2016-07-01T14:10:09Z</time></trkpt>
<trkpt lat="46.47396" lon="6.81103"><ele>518</ele><time>2016-07-01T14:10:12Z</time></trkpt>
<trkpt lat="46.47393" lon="6.81127"><ele>518.2</ele><time>2016-07-01T14:10:15Z</time></trkpt>
<trkpt lat="46.47384" lon="6.81159"><ele>517.2</ele><time>2016-07-01T14:10:19Z</time></trkpt>
<trkpt lat="46.4738" lon="6.81179"><ele>515</ele><time>2016-07-01T14:10:21Z</time></trkpt>
<trkpt lat="46.47378" lon="6.81214"><ele>514.2</ele><time>2016-07-01T14:10:24Z</time></trkpt>
<trkpt lat="46.47378" lon="6.81226"><ele>514.4</ele><time>2016-07-01T14:10:25Z</time></trkpt>
<trkpt lat="46.47378" lon="6.81254"><ele>515.6</ele><time>2016-07-01T14:10:28Z</time></trkpt>
<trkpt lat="46.47379" lon="6.81287"><ele>516.2</ele><time>2016-07-01T14:10:32Z</time></trkpt>
<trkpt lat="46.47384" lon="6.81315"><ele>516.8</ele><time>2016-07-01T14:10:36Z</time></trkpt>
<trkpt lat="46.47391" lon="6.81342"><ele>517.2</ele><time>2016-07-01T14:10:40Z</time></trkpt>
<trkpt lat="46.47398" lon="6.81369"><ele>517.6</ele><time>2016-07-01T14:10:44Z</time></trkpt>
<trkpt lat="46.47406" lon="6.81395"><ele>518.6</ele><time>2016-07-01T14:10:48Z</time></trkpt>
<trkpt lat="46.47413" lon="6.81419"><ele>520</ele><time>2016-07-01T14:10:53Z</time></trkpt>
<trkpt lat="46.4742" lon="6.81444"><ele>521.8</ele><time>2016-07-01T14:11:01Z</time></trkpt>
<trkpt lat="46.47422" lon="6.8145"><ele>522</ele><time>2016-07-01T14:11:03Z</time></trkpt>
<trkpt lat="46.47429" lon="6.81456"><ele>522.8</ele><time>2016-07-01T14:11:07Z</time></trkpt>
<trkpt lat="46.47436" lon="6.81436"><ele>525.4</ele><time>2016-07-01T14:11:17Z</time></trkpt>
<trkpt lat="46.4744" lon="6.81421"><ele>526.4</ele><time>2016-07-01T14:11:24Z</time></trkpt>
<trkpt lat="46.47442" lon="6.81413"><ele>527.2</ele><time>2016-07-01T14:11:28Z</time></trkpt>
<trkpt lat="46.47443" lon="6.81411"><ele>527.2</ele><time>2016-07-01T14:11:29Z</time></trkpt>
<trkpt lat="46.47445" lon="6.81407"><ele>527.6</ele><time>2016-07-01T14:11:31Z</time></trkpt>
<trkpt lat="46.47448" lon="6.81397"><ele>528.2</ele><time>2016-07-01T14:11:36Z</time></trkpt>
<trkpt lat="46.4745" lon="6.81393"><ele>528.4</ele><time>2016-07-01T14:11:38Z</time></trkpt>
<trkpt lat="46.47452" lon="6.81389"><ele>528.6</ele><time>2016-07-01T14:11:40Z</time></trkpt>
<trkpt lat="46.47461" lon="6.81367"><ele>529.6</ele><time>2016-07-01T14:11:51Z</time></trkpt>
<trkpt lat="46.47468" lon="6.81341"><ele>530.4</ele><time>2016-07-01T14:12:02Z</time></trkpt>
<trkpt lat="46.4747" lon="6.81326"><ele>531.6</ele><time>2016-07-01T14:12:08Z</time></trkpt>
<trkpt lat="46.47472" lon="6.813"><ele>533</ele><time>2016-07-01T14:12:17Z</time></trkpt>
<trkpt lat="46.47476" lon="6.81274"><ele>534.4</ele><time>2016-07-01T14:12:26Z</time></trkpt>
<trkpt lat="46.47479" lon="6.81247"><ele>535.6</ele><time>2016-07-01T14:12:34Z</time></trkpt>
<trkpt lat="46.47481" lon="6.81221"><ele>535.8</ele><time>2016-07-01T14:12:41Z</time></trkpt>
<trkpt lat="46.47481" lon="6.81181"><ele>536.8</ele><time>2016-07-01T14:12:51Z</time></trkpt>
<trkpt lat="46.47482" lon="6.81154"><ele>537.8</ele><time>2016-07-01T14:12:57Z</time></trkpt>
<trkpt lat="46.47479" lon="6.81127"><ele>539.2</ele><time>2016-07-01T14:13:04Z</time></trkpt>
<trkpt lat="46.47479" lon="6.81112"><ele>539.8</ele><time>2016-07-01T14:13:08Z</time></trkpt>
<trkpt lat="46.47478" lon="6.81083"><ele>541.2</ele><time>2016-07-01T14:13:16Z</time></trkpt>
<trkpt lat="46.47478" lon="6.81055"><ele>542.2</ele><time>2016-07-01T14:13:24Z</time></trkpt>
<trkpt lat="46.47477" lon="6.81027"><ele>543</ele><time>2016-07-01T14:13:32Z</time></trkpt>
<trkpt lat="46.47476" lon="6.80991"><ele>544.2</ele><time>2016-07-01T14:13:42Z</time></trkpt>
<trkpt lat="46.47476" lon="6.80961"><ele>545.6</ele><time>2016-07-01T14:13:50Z</time></trkpt>
<trkpt lat="46.47476" lon="6.80939"><ele>546.8</ele><time>2016-07-01T14:13:56Z</time></trkpt>
<trkpt lat="46.47476" lon="6.80912"><ele>548</ele><time>2016-07-01T14:14:03Z</time></trkpt>
<trkpt lat="46.47477" lon="6.80884"><ele>549</ele><time>2016-07-01T14:14:10Z</time></trkpt>
<trkpt lat="46.47479" lon="6.80839"><ele>550.6</ele><time>2016-07-01T14:14:21Z</time></trkpt>
<trkpt lat="46.4748" lon="6.80811"><ele>551.8</ele><time>2016-07-01T14:14:28Z</time></trkpt>
<trkpt lat="46.47481" lon="6.80782"><ele>553</ele><time>2016-07-01T14:14:35Z</time></trkpt>
<trkpt lat="46.47485" lon="6.80763"><ele>554.2</ele><time>2016-07-01T14:14:40Z</time></trkpt>
<trkpt lat="46.47488" lon="6.80738"><ele>557.6</ele><time>2016-07-01T14:14:49Z</time></trkpt>
<trkpt lat="46.47494" lon="6.80721"><ele>559</ele><time>2016-07-01T14:14:54Z</time></trkpt>
<trkpt lat="46.475" lon="6.80692"><ele>559.4</ele><time>2016-07-01T14:15:01Z</time></trkpt>
<trkpt lat="46.47504" lon="6.80665"><ele>559.8</ele><time>2016-07-01T14:15:05Z</time></trkpt>
<trkpt lat="46.47505" lon="6.80657"><ele>559.8</ele><time>2016-07-01T14:15:06Z</time></trkpt>
<trkpt lat="46.4751" lon="6.8063"><ele>560</ele><time>2016-07-01T14:15:09Z</time></trkpt>
<trkpt lat="46.47515" lon="6.80601"><ele>559.8</ele><time>2016-07-01T14:15:12Z</time></trkpt>
<trkpt lat="46.4752" lon="6.80575"><ele>559.8</ele><time>2016-07-01T14:15:15Z</time></trkpt>
<trkpt lat="46.47526" lon="6.8055"><ele>559</ele><time>2016-07-01T14:15:18Z</time></trkpt>
<trkpt lat="46.47533" lon="6.80521"><ele>558.2</ele><time>2016-07-01T14:15:22Z</time></trkpt>
<trkpt lat="46.47539" lon="6.80495"><ele>557.4</ele><time>2016-07-01T14:15:26Z</time></trkpt>
<trkpt lat="46.47543" lon="6.80476"><ele>558</ele><time>2016-07-01T14:15:29Z</time></trkpt>
<trkpt lat="46.47548" lon="6.80455"><ele>559.6</ele><time>2016-07-01T14:15:33Z</time></trkpt>
<trkpt lat="46.47554" lon="6.80428"><ele>558.6</ele><time>2016-07-01T14:15:40Z</time></trkpt>
<trkpt lat="46.47561" lon="6.80402"><ele>560.8</ele><time>2016-07-01T14:15:48Z</time></trkpt>
<trkpt lat="46.47568" lon="6.80376"><ele>564.6</ele><time>2016-07-01T14:15:56Z</time></trkpt>
<trkpt lat="46.47576" lon="6.8035"><ele>566</ele><time>2016-07-01T14:16:04Z</time></trkpt>
<trkpt lat="46.47578" lon="6.80341"><ele>565.8</ele><time>2016-07-01T14:16:07Z</time></trkpt>
<trkpt lat="46.47578" lon="6.80338"><ele>565</ele><time>2016-07-01T14:16:08Z</time></trkpt>
<trkpt lat="46.47579" lon="6.80332"><ele>564.6</ele><time>2016-07-01T14:16:10Z</time></trkpt>
<trkpt lat="46.47584" lon="6.80301"><ele>564.2</ele><time>2016-07-01T14:16:20Z</time></trkpt>
<trkpt lat="46.47587" lon="6.80281"><ele>563.4</ele><time>2016-07-01T14:16:27Z</time></trkpt>
<trkpt lat="46.47592" lon="6.80262"><ele>565.2</ele><time>2016-07-01T14:16:35Z</time></trkpt>
<trkpt lat="46.47597" lon="6.80237"><ele>567.4</ele><time>2016-07-01T14:16:45Z</time></trkpt>
<trkpt lat="46.476" lon="6.80211"><ele>570.8</ele><time>2016-07-01T14:16:55Z</time></trkpt>
<trkpt lat="46.47604" lon="6.80189"><ele>572.2</ele><time>2016-07-01T14:17:02Z</time></trkpt>
<trkpt lat="46.47607" lon="6.80177"><ele>573.8</ele><time>2016-07-01T14:17:06Z</time></trkpt>
<trkpt lat="46.4761" lon="6.80161"><ele>576.4</ele><time>2016-07-01T14:17:11Z</time></trkpt>
<trkpt lat="46.47614" lon="6.8014"><ele>577.4</ele><time>2016-07-01T14:17:17Z</time></trkpt>
<trkpt lat="46.47615" lon="6.8012"><ele>577.2</ele><time>2016-07-01T14:17:22Z</time></trkpt>
<trkpt lat="46.47604" lon="6.80107"><ele>578.6</ele><time>2016-07-01T14:17:37Z</time></trkpt>
<trkpt lat="46.47609" lon="6.80116"><ele>579.6</ele><time>2016-07-01T14:17:51Z</time></trkpt>
<trkpt lat="46.47613" lon="6.80123"><ele>579.2</ele><time>2016-07-01T14:17:56Z</time></trkpt>
<trkpt lat="46.47616" lon="6.80118"><ele>578.8</ele><time>2016-07-01T14:17:59Z</time></trkpt>
<trkpt lat="46.47619" lon="6.80111"><ele>578.6</ele><time>2016-07-01T14:18:01Z</time></trkpt>
<trkpt lat="46.47624" lon="6.80071"><ele>578.2</ele><time>2016-07-01T14:18:08Z</time></trkpt>
<trkpt lat="46.47624" lon="6.80053"><ele>578.4</ele><time>2016-07-01T14:18:11Z</time></trkpt>
<trkpt lat="46.47623" lon="6.80025"><ele>578.4</ele><time>2016-07-01T14:18:15Z</time></trkpt>
<trkpt lat="46.47634" lon="6.80006"><ele>578.6</ele><time>2016-07-01T14:18:19Z</time></trkpt>
<trkpt lat="46.47639" lon="6.80003"><ele>578.6</ele><time>2016-07-01T14:18:20Z</time></trkpt>
<trkpt lat="46.47657" lon="6.79997"><ele>578.2</ele><time>2016-07-01T14:18:24Z</time></trkpt>
<trkpt lat="46.47664" lon="6.8"><ele>578</ele><time>2016-07-01T14:18:26Z</time></trkpt>
<trkpt lat="46.47667" lon="6.80006"><ele>577.8</ele><time>2016-07-01T14:18:28Z</time></trkpt>
<trkpt lat="46.47679" lon="6.80013"><ele>577</ele><time>2016-07-01T14:18:38Z</time></trkpt>
<trkpt lat="46.47681" lon="6.80018"><ele>577</ele><time>2016-07-01T14:18:40Z</time></trkpt>
<trkpt lat="46.47691" lon="6.80016"><ele>576.4</ele><time>2016-07-01T14:18:49Z</time></trkpt>
<trkpt lat="46.47695" lon="6.80014"><ele>576.6</ele><time>2016-07-01T14:18:56Z</time></trkpt>
<trkpt lat="46.477" lon="6.80011"><ele>576.8</ele><time>2016-07-01T14:19:03Z</time></trkpt>
<trkpt lat="46.47704" lon="6.80009"><ele>577.2</ele><time>2016-07-01T14:19:08Z</time></trkpt>
<trkpt lat="46.47707" lon="6.80006"><ele>577.8</ele><time>2016-07-01T14:19:14Z</time></trkpt>
<trkpt lat="46.47708" lon="6.80004"><ele>577.8</ele><time>2016-07-01T14:19:16Z</time></trkpt>
<trkpt lat="46.47709" lon="6.80004"><ele>577.8</ele><time>2016-07-01T14:19:17Z</time></trkpt>
<trkpt lat="46.47711" lon="6.80001"><ele>578</ele><time>2016-07-01T14:19:21Z</time></trkpt>
<trkpt lat="46.47713" lon="6.8"><ele>578</ele><time>2016-07-01T14:19:23Z</time></trkpt>
<trkpt lat="46.47715" lon="6.79997"><ele>578</ele><time>2016-07-01T14:19:26Z</time></trkpt>
<trkpt lat="46.47731" lon="6.79983"><ele>579.6</ele><time>2016-07-01T14:19:48Z</time></trkpt>
<trkpt lat="46.47733" lon="6.79981"><ele>579.8</ele><time>2016-07-01T14:19:51Z</time></trkpt>
<trkpt lat="46.47741" lon="6.79968"><ele>581.6</ele><time>2016-07-01T14:20:06Z</time></trkpt>
<trkpt lat="46.47742" lon="6.79966"><ele>581.8</ele><time>2016-07-01T14:20:08Z</time></trkpt>
<trkpt lat="46.47744" lon="6.79961"><ele>582.4</ele><time>2016-07-01T14:20:12Z</time></trkpt>
<trkpt lat="46.47747" lon="6.79954"><ele>583.4</ele><time>2016-07-01T14:20:17Z</time></trkpt>
<trkpt lat="46.47754" lon="6.79943"><ele>585</ele><time>2016-07-01T14:20:27Z</time></trkpt>
<trkpt lat="46.47759" lon="6.79936"><ele>586.2</ele><time>2016-07-01T14:20:33Z</time></trkpt>
<trkpt lat="46.47764" lon="6.79926"><ele>587.8</ele><time>2016-07-01T14:20:42Z</time></trkpt>
<trkpt lat="46.47767" lon="6.79921"><ele>588.4</ele><time>2016-07-01T14:20:46Z</time></trkpt>
<trkpt lat="46.47771" lon="6.79914"><ele>589</ele><time>2016-07-01T14:20:52Z</time></trkpt>
<trkpt lat="46.47774" lon="6.7991"><ele>589.6</ele><time>2016-07-01T14:20:56Z</time></trkpt>
<trkpt lat="46.47783" lon="6.79887"><ele>591.8</ele><time>2016-07-01T14:21:10Z</time></trkpt>
<trkpt lat="46.47782" lon="6.79872"><ele>593.6</ele><time>2016-07-01T14:21:16Z</time></trkpt>
<trkpt lat="46.47767" lon="6.79854"><ele>596</ele><time>2016-07-01T14:21:25Z</time></trkpt>
<trkpt lat="46.47763" lon="6.79829"><ele>595</ele><time>2016-07-01T14:21:30Z</time></trkpt>
<trkpt lat="46.47767" lon="6.79803"><ele>595</ele><time>2016-07-01T14:21:35Z</time></trkpt>
<trkpt lat="46.47769" lon="6.79788"><ele>595.6</ele><time>2016-07-01T14:21:38Z</time></trkpt>
<trkpt lat="46.47771" lon="6.79773"><ele>595.4</ele><time>2016-07-01T14:21:41Z</time></trkpt>
<trkpt lat="46.47774" lon="6.79765"><ele>596.4</ele><time>2016-07-01T14:21:43Z</time></trkpt>
<trkpt lat="46.47775" lon="6.79758"><ele>596.6</ele><time>2016-07-01T14:21:45Z</time></trkpt>
<trkpt lat="46.47782" lon="6.79735"><ele>597.8</ele><time>2016-07-01T14:21:53Z</time></trkpt>
<trkpt lat="46.4779" lon="6.79709"><ele>600.2</ele><time>2016-07-01T14:22:02Z</time></trkpt>
<trkpt lat="46.47798" lon="6.79685"><ele>603.2</ele><time>2016-07-01T14:22:10Z</time></trkpt>
<trkpt lat="46.47807" lon="6.79661"><ele>606</ele><time>2016-07-01T14:22:18Z</time></trkpt>
<trkpt lat="46.47808" lon="6.79658"><ele>606.4</ele><time>2016-07-01T14:22:19Z</time></trkpt>
<trkpt lat="46.47817" lon="6.79636"><ele>607.8</ele><time>2016-07-01T14:22:26Z</time></trkpt>
<trkpt lat="46.4783" lon="6.79616"><ele>608.6</ele><time>2016-07-01T14:22:35Z</time></trkpt>
<trkpt lat="46.47836" lon="6.79609"><ele>608</ele><time>2016-07-01T14:22:38Z</time></trkpt>
<trkpt lat="46.47838" lon="6.79606"><ele>608</ele><time>2016-07-01T14:22:39Z</time></trkpt>
<trkpt lat="46.47839" lon="6.79603"><ele>607.8</ele><time>2016-07-01T14:22:40Z</time></trkpt>
<trkpt lat="46.47841" lon="6.79599"><ele>607.6</ele><time>2016-07-01T14:22:41Z</time></trkpt>
<trkpt lat="46.47849" lon="6.79582"><ele>608.2</ele><time>2016-07-01T14:22:45Z</time></trkpt>
<trkpt lat="46.4786" lon="6.79553"><ele>607.8</ele><time>2016-07-01T14:22:50Z</time></trkpt>
<trkpt lat="46.47873" lon="6.79523"><ele>606.6</ele><time>2016-07-01T14:22:54Z</time></trkpt>
<trkpt lat="46.47887" lon="6.79499"><ele>605</ele><time>2016-07-01T14:22:57Z</time></trkpt>
<trkpt lat="46.47903" lon="6.79473"><ele>603</ele><time>2016-07-01T14:23:00Z</time></trkpt>
<trkpt lat="46.47919" lon="6.79449"><ele>602</ele><time>2016-07-01T14:23:03Z</time></trkpt>
<trkpt lat="46.4793" lon="6.79437"><ele>602.6</ele><time>2016-07-01T14:23:05Z</time></trkpt>
<trkpt lat="46.47934" lon="6.79433"><ele>603</ele><time>2016-07-01T14:23:06Z</time></trkpt>
<trkpt lat="46.47942" lon="6.79427"><ele>602.8</ele><time>2016-07-01T14:23:08Z</time></trkpt>
<trkpt lat="46.47953" lon="6.79417"><ele>603.6</ele><time>2016-07-01T14:23:12Z</time></trkpt>
<trkpt lat="46.47976" lon="6.79386"><ele>605.6</ele><time>2016-07-01T14:23:23Z</time></trkpt>
<trkpt lat="46.47989" lon="6.79366"><ele>608</ele><time>2016-07-01T14:23:30Z</time></trkpt>
<trkpt lat="46.47996" lon="6.79355"><ele>609.2</ele><time>2016-07-01T14:23:34Z</time></trkpt>
<trkpt lat="46.48007" lon="6.79333"><ele>610.8</ele><time>2016-07-01T14:23:41Z</time></trkpt>
<trkpt lat="46.48018" lon="6.7931"><ele>611.8</ele><time>2016-07-01T14:23:49Z</time></trkpt>
<trkpt lat="46.4803" lon="6.79289"><ele>613</ele><time>2016-07-01T14:23:57Z</time></trkpt>
<trkpt lat="46.48036" lon="6.79283"><ele>614.2</ele><time>2016-07-01T14:24:00Z</time></trkpt>
<trkpt lat="46.48053" lon="6.7927"><ele>615.4</ele><time>2016-07-01T14:24:12Z</time></trkpt>
<trkpt lat="46.48038" lon="6.79263"><ele>615</ele><time>2016-07-01T14:24:20Z</time></trkpt>
<trkpt lat="46.48037" lon="6.79256"><ele>615</ele><time>2016-07-01T14:24:21Z</time></trkpt>
<trkpt lat="46.48037" lon="6.79249"><ele>614.6</ele><time>2016-07-01T14:24:22Z</time></trkpt>
<trkpt lat="46.48034" lon="6.79236"><ele>614.2</ele><time>2016-07-01T14:24:24Z</time></trkpt>
<trkpt lat="46.48026" lon="6.79225"><ele>613.2</ele><time>2016-07-01T14:24:26Z</time></trkpt>
<trkpt lat="46.48011" lon="6.7921"><ele>611.2</ele><time>2016-07-01T14:24:29Z</time></trkpt>
<trkpt lat="46.48002" lon="6.79201"><ele>609.8</ele><time>2016-07-01T14:24:31Z</time></trkpt>
<trkpt lat="46.47996" lon="6.79194"><ele>608.2</ele><time>2016-07-01T14:24:33Z</time></trkpt>
<trkpt lat="46.47992" lon="6.79192"><ele>606.8</ele><time>2016-07-01T14:24:36Z</time></trkpt>
<trkpt lat="46.47994" lon="6.79185"><ele>604.4</ele><time>2016-07-01T14:24:40Z</time></trkpt>
<trkpt lat="46.47998" lon="6.79185"><ele>603.6</ele><time>2016-07-01T14:24:42Z</time></trkpt>
<trkpt lat="46.48019" lon="6.79158"><ele>600.6</ele><time>2016-07-01T14:24:50Z</time></trkpt>
<trkpt lat="46.48029" lon="6.79137"><ele>599.4</ele><time>2016-07-01T14:24:54Z</time></trkpt>
<trkpt lat="46.4804" lon="6.79116"><ele>599.8</ele><time>2016-07-01T14:24:59Z</time></trkpt>
<trkpt lat="46.48045" lon="6.79107"><ele>601</ele><time>2016-07-01T14:25:03Z</time></trkpt>
<trkpt lat="46.48045" lon="6.79107"><ele>601.4</ele><time>2016-07-01T14:25:05Z</time></trkpt>
<trkpt lat="46.48032" lon="6.79132"><ele>601.4</ele><time>2016-07-01T14:25:14Z</time></trkpt>
<trkpt lat="46.48021" lon="6.79156"><ele>601.2</ele><time>2016-07-01T14:25:19Z</time></trkpt>
<trkpt lat="46.48016" lon="6.79164"><ele>601.4</ele><time>2016-07-01T14:25:21Z</time></trkpt>
<trkpt lat="46.48002" lon="6.79184"><ele>602.6</ele><time>2016-07-01T14:25:27Z</time></trkpt>
<trkpt lat="46.47994" lon="6.79188"><ele>603.4</ele><time>2016-07-01T14:25:30Z</time></trkpt>
<trkpt lat="46.4798" lon="6.79178"><ele>602.2</ele><time>2016-07-01T14:25:33Z</time></trkpt>
<trkpt lat="46.47971" lon="6.79149"><ele>598.8</ele><time>2016-07-01T14:25:36Z</time></trkpt>
<trkpt lat="46.47972" lon="6.79129"><ele>596.2</ele><time>2016-07-01T14:25:38Z</time></trkpt>
<trkpt lat="46.47974" lon="6.79114"><ele>594</ele><time>2016-07-01T14:25:40Z</time></trkpt>
<trkpt lat="46.47979" lon="6.79094"><ele>591.8</ele><time>2016-07-01T14:25:44Z</time></trkpt>
<trkpt lat="46.47985" lon="6.79084"><ele>591.2</ele><time>2016-07-01T14:25:46Z</time></trkpt>
<trkpt lat="46.47998" lon="6.7906"><ele>589.6</ele><time>2016-07-01T14:25:50Z</time></trkpt>
<trkpt lat="46.48011" lon="6.79039"><ele>587.6</ele><time>2016-07-01T14:25:53Z</time></trkpt>
<trkpt lat="46.4802" lon="6.79024"><ele>587</ele><time>2016-07-01T14:25:55Z</time></trkpt>
<trkpt lat="46.48033" lon="6.78999"><ele>586.2</ele><time>2016-07-01T14:25:58Z</time></trkpt>
<trkpt lat="46.48046" lon="6.7897"><ele>585.2</ele><time>2016-07-01T14:26:01Z</time></trkpt>
<trkpt lat="46.48057" lon="6.78941"><ele>584</ele><time>2016-07-01T14:26:04Z</time></trkpt>
<trkpt lat="46.48062" lon="6.78932"><ele>583.2</ele><time>2016-07-01T14:26:05Z</time></trkpt>
<trkpt lat="46.48072" lon="6.78916"><ele>582</ele><time>2016-07-01T14:26:07Z</time></trkpt>
<trkpt lat="46.48074" lon="6.78886"><ele>581.2</ele><time>2016-07-01T14:26:10Z</time></trkpt>
<trkpt lat="46.48075" lon="6.78876"><ele>581</ele><time>2016-07-01T14:26:11Z</time></trkpt>
<trkpt lat="46.4808" lon="6.78855"><ele>580.8</ele><time>2016-07-01T14:26:13Z</time></trkpt>
<trkpt lat="46.48085" lon="6.78821"><ele>580.4</ele><time>2016-07-01T14:26:16Z</time></trkpt>
<trkpt lat="46.48086" lon="6.78786"><ele>580</ele><time>2016-07-01T14:26:19Z</time></trkpt>
<trkpt lat="46.48084" lon="6.7875"><ele>580</ele><time>2016-07-01T14:26:22Z</time></trkpt>
<trkpt lat="46.48082" lon="6.78713"><ele>579.6</ele><time>2016-07-01T14:26:25Z</time></trkpt>
<trkpt lat="46.48078" lon="6.78676"><ele>578.2</ele><time>2016-07-01T14:26:28Z</time></trkpt>
<trkpt lat="46.48074" lon="6.78638"><ele>577.4</ele><time>2016-07-01T14:26:31Z</time></trkpt>
<trkpt lat="46.48072" lon="6.78602"><ele>577.6</ele><time>2016-07-01T14:26:34Z</time></trkpt>
<trkpt lat="46.48071" lon="6.78578"><ele>577.4</ele><time>2016-07-01T14:26:36Z</time></trkpt>
<trkpt lat="46.48067" lon="6.78543"><ele>576.8</ele><time>2016-07-01T14:26:39Z</time></trkpt>
<trkpt lat="46.48063" lon="6.78507"><ele>576.8</ele><time>2016-07-01T14:26:42Z</time></trkpt>
<trkpt lat="46.4806" lon="6.78471"><ele>576</ele><time>2016-07-01T14:26:45Z</time></trkpt>
<trkpt lat="46.4806" lon="6.7846"><ele>576.2</ele><time>2016-07-01T14:26:46Z</time></trkpt>
<trkpt lat="46.48064" lon="6.78428"><ele>575.8</ele><time>2016-07-01T14:26:49Z</time></trkpt>
<trkpt lat="46.48073" lon="6.78399"><ele>576</ele><time>2016-07-01T14:26:52Z</time></trkpt>
<trkpt lat="46.48077" lon="6.78391"><ele>576.2</ele><time>2016-07-01T14:26:53Z</time></trkpt>
<trkpt lat="46.48088" lon="6.78367"><ele>577</ele><time>2016-07-01T14:26:56Z</time></trkpt>
<trkpt lat="46.48099" lon="6.78345"><ele>578</ele><time>2016-07-01T14:26:59Z</time></trkpt>
<trkpt lat="46.48113" lon="6.78318"><ele>579.6</ele><time>2016-07-01T14:27:03Z</time></trkpt>
<trkpt lat="46.48125" lon="6.78293"><ele>580.6</ele><time>2016-07-01T14:27:07Z</time></trkpt>
<trkpt lat="46.48137" lon="6.78267"><ele>581.6</ele><time>2016-07-01T14:27:11Z</time></trkpt>
<trkpt lat="46.48141" lon="6.78254"><ele>581.6</ele><time>2016-07-01T14:27:13Z</time></trkpt>
<trkpt lat="46.48146" lon="6.78228"><ele>582.8</ele><time>2016-07-01T14:27:17Z</time></trkpt>
<trkpt lat="46.48146" lon="6.78222"><ele>583.2</ele><time>2016-07-01T14:27:18Z</time></trkpt>
<trkpt lat="46.48147" lon="6.78198"><ele>583.6</ele><time>2016-07-01T14:27:22Z</time></trkpt>
<trkpt lat="46.48149" lon="6.7817"><ele>583.4</ele><time>2016-07-01T14:27:27Z</time></trkpt>
<trkpt lat="46.4815" lon="6.78147"><ele>583</ele><time>2016-07-01T14:27:31Z</time></trkpt>
<trkpt lat="46.48154" lon="6.78124"><ele>583.6</ele><time>2016-07-01T14:27:35Z</time></trkpt>
<trkpt lat="46.48164" lon="6.78096"><ele>583.6</ele><time>2016-07-01T14:27:40Z</time></trkpt>
<trkpt lat="46.48175" lon="6.78072"><ele>582.2</ele><time>2016-07-01T14:27:44Z</time></trkpt>
<trkpt lat="46.48188" lon="6.78046"><ele>581.2</ele><time>2016-07-01T14:27:48Z</time></trkpt>
<trkpt lat="46.48199" lon="6.78024"><ele>580.2</ele><time>2016-07-01T14:27:51Z</time></trkpt>
<trkpt lat="46.48208" lon="6.77998"><ele>579.4</ele><time>2016-07-01T14:27:54Z</time></trkpt>
<trkpt lat="46.48213" lon="6.77977"><ele>578.8</ele><time>2016-07-01T14:27:56Z</time></trkpt>
<trkpt lat="46.48215" lon="6.77945"><ele>578.2</ele><time>2016-07-01T14:27:59Z</time></trkpt>
<trkpt lat="46.48212" lon="6.7791"><ele>577</ele><time>2016-07-01T14:28:02Z</time></trkpt>
<trkpt lat="46.48206" lon="6.77887"><ele>576.4</ele><time>2016-07-01T14:28:04Z</time></trkpt>
<trkpt lat="46.48203" lon="6.77876"><ele>576</ele><time>2016-07-01T14:28:05Z</time></trkpt>
<trkpt lat="46.48191" lon="6.77846"><ele>574.8</ele><time>2016-07-01T14:28:08Z</time></trkpt>
<trkpt lat="46.48183" lon="6.77836"><ele>573.2</ele><time>2016-07-01T14:28:10Z</time></trkpt>
<trkpt lat="46.48179" lon="6.77834"><ele>573</ele><time>2016-07-01T14:28:11Z</time></trkpt>
<trkpt lat="46.48174" lon="6.77832"><ele>572.2</ele><time>2016-07-01T14:28:13Z</time></trkpt>
<trkpt lat="46.48172" lon="6.77832"><ele>571.4</ele><time>2016-07-01T14:28:16Z</time></trkpt>
<trkpt lat="46.48171" lon="6.77833"><ele>572</ele><time>2016-07-01T14:28:17Z</time></trkpt>
<trkpt lat="46.48167" lon="6.77827"><ele>572.4</ele><time>2016-07-01T14:28:21Z</time></trkpt>
<trkpt lat="46.48163" lon="6.778"><ele>572.2</ele><time>2016-07-01T14:28:27Z</time></trkpt>
<trkpt lat="46.48159" lon="6.77775"><ele>572.6</ele><time>2016-07-01T14:28:32Z</time></trkpt>
<trkpt lat="46.48157" lon="6.77764"><ele>572.4</ele><time>2016-07-01T14:28:34Z</time></trkpt>
<trkpt lat="46.48155" lon="6.77752"><ele>572.2</ele><time>2016-07-01T14:28:36Z</time></trkpt>
<trkpt lat="46.48154" lon="6.77747"><ele>572.2</ele><time>2016-07-01T14:28:37Z</time></trkpt>
<trkpt lat="46.48154" lon="6.77731"><ele>571.8</ele><time>2016-07-01T14:28:40Z</time></trkpt>
<trkpt lat="46.48162" lon="6.77705"><ele>569.6</ele><time>2016-07-01T14:28:46Z</time></trkpt>
<trkpt lat="46.48169" lon="6.77691"><ele>569.8</ele><time>2016-07-01T14:28:50Z</time></trkpt>
<trkpt lat="46.48182" lon="6.77667"><ele>570</ele><time>2016-07-01T14:28:57Z</time></trkpt>
<trkpt lat="46.48196" lon="6.77645"><ele>573.2</ele><time>2016-07-01T14:29:04Z</time></trkpt>
<trkpt lat="46.4821" lon="6.77627"><ele>576.6</ele><time>2016-07-01T14:29:10Z</time></trkpt>
<trkpt lat="46.4822" lon="6.77619"><ele>577.4</ele><time>2016-07-01T14:29:13Z</time></trkpt>
<trkpt lat="46.48224" lon="6.77617"><ele>577.4</ele><time>2016-07-01T14:29:14Z</time></trkpt>
<trkpt lat="46.48228" lon="6.77615"><ele>577.4</ele><time>2016-07-01T14:29:15Z</time></trkpt>
<trkpt lat="46.48235" lon="6.7761"><ele>577</ele><time>2016-07-01T14:29:17Z</time></trkpt>
<trkpt lat="46.48239" lon="6.77601"><ele>576.8</ele><time>2016-07-01T14:29:19Z</time></trkpt>
<trkpt lat="46.48236" lon="6.77585"><ele>577.8</ele><time>2016-07-01T14:29:22Z</time></trkpt>
<trkpt lat="46.48233" lon="6.77578"><ele>578.2</ele><time>2016-07-01T14:29:23Z</time></trkpt>
<trkpt lat="46.48222" lon="6.77555"><ele>578</ele><time>2016-07-01T14:29:26Z</time></trkpt>
<trkpt lat="46.48209" lon="6.77528"><ele>577.4</ele><time>2016-07-01T14:29:29Z</time></trkpt>
<trkpt lat="46.48195" lon="6.77502"><ele>577.4</ele><time>2016-07-01T14:29:32Z</time></trkpt>
<trkpt lat="46.48184" lon="6.77482"><ele>577.6</ele><time>2016-07-01T14:29:35Z</time></trkpt>
<trkpt lat="46.4819" lon="6.77462"><ele>577</ele><time>2016-07-01T14:29:39Z</time></trkpt>
<trkpt lat="46.48193" lon="6.7746"><ele>577</ele><time>2016-07-01T14:29:40Z</time></trkpt>
<trkpt lat="46.48199" lon="6.77453"><ele>577.8</ele><time>2016-07-01T14:29:43Z</time></trkpt>
<trkpt lat="46.48201" lon="6.7745"><ele>577.8</ele><time>2016-07-01T14:29:44Z</time></trkpt>
<trkpt lat="46.4821" lon="6.77439"><ele>578.8</ele><time>2016-07-01T14:29:49Z</time></trkpt>
<trkpt lat="46.48226" lon="6.77424"><ele>581.2</ele><time>2016-07-01T14:29:58Z</time></trkpt>
<trkpt lat="46.48235" lon="6.77407"><ele>581</ele><time>2016-07-01T14:30:07Z</time></trkpt>
<trkpt lat="46.48232" lon="6.77397"><ele>581.4</ele><time>2016-07-01T14:30:12Z</time></trkpt>
<trkpt lat="46.48207" lon="6.77382"><ele>583.2</ele><time>2016-07-01T14:30:25Z</time></trkpt>
<trkpt lat="46.48189" lon="6.77379"><ele>586.2</ele><time>2016-07-01T14:30:33Z</time></trkpt>
<trkpt lat="46.48179" lon="6.77374"><ele>586.2</ele><time>2016-07-01T14:30:37Z</time></trkpt>
<trkpt lat="46.48163" lon="6.77358"><ele>585.4</ele><time>2016-07-01T14:30:44Z</time></trkpt>
<trkpt lat="46.48152" lon="6.77335"><ele>586.6</ele><time>2016-07-01T14:30:50Z</time></trkpt>
<trkpt lat="46.48143" lon="6.77309"><ele>587.2</ele><time>2016-07-01T14:30:57Z</time></trkpt>
<trkpt lat="46.48133" lon="6.77286"><ele>589</ele><time>2016-07-01T14:31:06Z</time></trkpt>
<trkpt lat="46.48119" lon="6.77267"><ele>591.8</ele><time>2016-07-01T14:31:16Z</time></trkpt>
<trkpt lat="46.48113" lon="6.7726"><ele>593.2</ele><time>2016-07-01T14:31:20Z</time></trkpt>
<trkpt lat="46.48104" lon="6.77236"><ele>599.2</ele><time>2016-07-01T14:31:35Z</time></trkpt>
<trkpt lat="46.4811" lon="6.77228"><ele>600.8</ele><time>2016-07-01T14:31:41Z</time></trkpt>
<trkpt lat="46.4812" lon="6.77217"><ele>603.4</ele><time>2016-07-01T14:31:51Z</time></trkpt>
<trkpt lat="46.48135" lon="6.77199"><ele>605.6</ele><time>2016-07-01T14:32:05Z</time></trkpt>
<trkpt lat="46.48138" lon="6.77194"><ele>606</ele><time>2016-07-01T14:32:08Z</time></trkpt>
<trkpt lat="46.48151" lon="6.77174"><ele>607.6</ele><time>2016-07-01T14:32:20Z</time></trkpt>
<trkpt lat="46.4816" lon="6.77151"><ele>610.2</ele><time>2016-07-01T14:32:34Z</time></trkpt>
<trkpt lat="46.48174" lon="6.77122"><ele>613.2</ele><time>2016-07-01T14:32:55Z</time></trkpt>
<trkpt lat="46.48188" lon="6.77106"><ele>614.6</ele><time>2016-07-01T14:33:11Z</time></trkpt>
<trkpt lat="46.4819" lon="6.77105"><ele>614.8</ele><time>2016-07-01T14:33:13Z</time></trkpt>
<trkpt lat="46.48199" lon="6.77094"><ele>616.2</ele><time>2016-07-01T14:33:24Z</time></trkpt>
<trkpt lat="46.48203" lon="6.7709"><ele>616.8</ele><time>2016-07-01T14:33:29Z</time></trkpt>
<trkpt lat="46.48213" lon="6.77081"><ele>618.4</ele><time>2016-07-01T14:33:40Z</time></trkpt>
<trkpt lat="46.48227" lon="6.77064"><ele>620.2</ele><time>2016-07-01T14:33:55Z</time></trkpt>
<trkpt lat="46.48232" lon="6.77056"><ele>621.2</ele><time>2016-07-01T14:34:02Z</time></trkpt>
<trkpt lat="46.48236" lon="6.77049"><ele>622.6</ele><time>2016-07-01T14:34:09Z</time></trkpt>
<trkpt lat="46.48252" lon="6.77035"><ele>625.4</ele><time>2016-07-01T14:34:28Z</time></trkpt>
<trkpt lat="46.48262" lon="6.77027"><ele>626.8</ele><time>2016-07-01T14:34:41Z</time></trkpt>
<trkpt lat="46.48273" lon="6.77007"><ele>630</ele><time>2016-07-01T14:35:00Z</time></trkpt>
<trkpt lat="46.48275" lon="6.76974"><ele>634.2</ele><time>2016-07-01T14:35:22Z</time></trkpt>
<trkpt lat="46.4828" lon="6.76947"><ele>636</ele><time>2016-07-01T14:35:35Z</time></trkpt>
<trkpt lat="46.48289" lon="6.76921"><ele>634.2</ele><time>2016-07-01T14:35:41Z</time></trkpt>
<trkpt lat="46.48297" lon="6.76906"><ele>633.4</ele><time>2016-07-01T14:35:44Z</time></trkpt>
<trkpt lat="46.4831" lon="6.76889"><ele>632.8</ele><time>2016-07-01T14:35:49Z</time></trkpt>
<trkpt lat="46.48324" lon="6.76873"><ele>632.4</ele><time>2016-07-01T14:35:55Z</time></trkpt>
<trkpt lat="46.4834" lon="6.7686"><ele>633.8</ele><time>2016-07-01T14:36:02Z</time></trkpt>
<trkpt lat="46.48353" lon="6.76838"><ele>636.2</ele><time>2016-07-01T14:36:10Z</time></trkpt>
<trkpt lat="46.48363" lon="6.76814"><ele>640.2</ele><time>2016-07-01T14:36:19Z</time></trkpt>
<trkpt lat="46.48375" lon="6.7679"><ele>642.8</ele><time>2016-07-01T14:36:28Z</time></trkpt>
<trkpt lat="46.48383" lon="6.76766"><ele>645</ele><time>2016-07-01T14:36:36Z</time></trkpt>
<trkpt lat="46.48393" lon="6.76739"><ele>646.4</ele><time>2016-07-01T14:36:45Z</time></trkpt>
<trkpt lat="46.48402" lon="6.76715"><ele>645.6</ele><time>2016-07-01T14:36:53Z</time></trkpt>
<trkpt lat="46.48414" lon="6.76695"><ele>646.6</ele><time>2016-07-01T14:37:01Z</time></trkpt>
<trkpt lat="46.48427" lon="6.76674"><ele>649.4</ele><time>2016-07-01T14:37:09Z</time></trkpt>
<trkpt lat="46.48439" lon="6.76651"><ele>650</ele><time>2016-07-01T14:37:16Z</time></trkpt>
<trkpt lat="46.48448" lon="6.76633"><ele>650.4</ele><time>2016-07-01T14:37:21Z</time></trkpt>
<trkpt lat="46.48459" lon="6.76608"><ele>651.2</ele><time>2016-07-01T14:37:28Z</time></trkpt>
<trkpt lat="46.48468" lon="6.76584"><ele>651.6</ele><time>2016-07-01T14:37:34Z</time></trkpt>
<trkpt lat="46.48473" lon="6.76569"><ele>652.2</ele><time>2016-07-01T14:37:38Z</time></trkpt>
<trkpt lat="46.48482" lon="6.76545"><ele>650.6</ele><time>2016-07-01T14:37:44Z</time></trkpt>
<trkpt lat="46.48489" lon="6.76519"><ele>649.2</ele><time>2016-07-01T14:37:50Z</time></trkpt>
<trkpt lat="46.48492" lon="6.76487"><ele>646.2</ele><time>2016-07-01T14:37:55Z</time></trkpt>
<trkpt lat="46.48495" lon="6.76472"><ele>644.4</ele><time>2016-07-01T14:37:57Z</time></trkpt>
<trkpt lat="46.48501" lon="6.76439"><ele>640.4</ele><time>2016-07-01T14:38:01Z</time></trkpt>
<trkpt lat="46.48506" lon="6.76411"><ele>640.2</ele><time>2016-07-01T14:38:04Z</time></trkpt>
<trkpt lat="46.4851" lon="6.76392"><ele>640.6</ele><time>2016-07-01T14:38:06Z</time></trkpt>
<trkpt lat="46.48517" lon="6.76368"><ele>640.8</ele><time>2016-07-01T14:38:09Z</time></trkpt>
<trkpt lat="46.48529" lon="6.76343"><ele>641.2</ele><time>2016-07-01T14:38:13Z</time></trkpt>
<trkpt lat="46.48542" lon="6.76323"><ele>640.6</ele><time>2016-07-01T14:38:17Z</time></trkpt>
<trkpt lat="46.48549" lon="6.76314"><ele>640.4</ele><time>2016-07-01T14:38:19Z</time></trkpt>
<trkpt lat="46.48565" lon="6.76293"><ele>639.2</ele><time>2016-07-01T14:38:26Z</time></trkpt>
<trkpt lat="46.48568" lon="6.76282"><ele>638.8</ele><time>2016-07-01T14:38:29Z</time></trkpt>
<trkpt lat="46.48576" lon="6.76255"><ele>639</ele><time>2016-07-01T14:38:35Z</time></trkpt>
<trkpt lat="46.48582" lon="6.76237"><ele>640</ele><time>2016-07-01T14:38:40Z</time></trkpt>
<trkpt lat="46.48593" lon="6.76225"><ele>641.2</ele><time>2016-07-01T14:38:46Z</time></trkpt>
<trkpt lat="46.48598" lon="6.76224"><ele>641.2</ele><time>2016-07-01T14:38:48Z</time></trkpt>
<trkpt lat="46.48604" lon="6.76225"><ele>641.4</ele><time>2016-07-01T14:38:51Z</time></trkpt>
<trkpt lat="46.48599" lon="6.76224"><ele>641.6</ele><time>2016-07-01T14:38:57Z</time></trkpt>
<trkpt lat="46.48593" lon="6.76226"><ele>642</ele><time>2016-07-01T14:39:00Z</time></trkpt>
<trkpt lat="46.48596" lon="6.762"><ele>643</ele><time>2016-07-01T14:39:09Z</time></trkpt>
<trkpt lat="46.48603" lon="6.76182"><ele>642</ele><time>2016-07-01T14:39:14Z</time></trkpt>
<trkpt lat="46.48614" lon="6.76159"><ele>641.6</ele><time>2016-07-01T14:39:18Z</time></trkpt>
<trkpt lat="46.48619" lon="6.76127"><ele>640.4</ele><time>2016-07-01T14:39:22Z</time></trkpt>
<trkpt lat="46.48629" lon="6.76105"><ele>638.6</ele><time>2016-07-01T14:39:26Z</time></trkpt>
<trkpt lat="46.48645" lon="6.76083"><ele>635.4</ele><time>2016-07-01T14:39:31Z</time></trkpt>
<trkpt lat="46.48648" lon="6.76077"><ele>635</ele><time>2016-07-01T14:39:32Z</time></trkpt>
<trkpt lat="46.48654" lon="6.7606"><ele>633.8</ele><time>2016-07-01T14:39:35Z</time></trkpt>
<trkpt lat="46.4866" lon="6.76037"><ele>630.4</ele><time>2016-07-01T14:39:39Z</time></trkpt>
<trkpt lat="46.48669" lon="6.76011"><ele>626.8</ele><time>2016-07-01T14:39:44Z</time></trkpt>
<trkpt lat="46.48679" lon="6.75992"><ele>624</ele><time>2016-07-01T14:39:49Z</time></trkpt>
<trkpt lat="46.48688" lon="6.75969"><ele>619.4</ele><time>2016-07-01T14:39:56Z</time></trkpt>
<trkpt lat="46.48693" lon="6.75942"><ele>617.6</ele><time>2016-07-01T14:40:02Z</time></trkpt>
<trkpt lat="46.48699" lon="6.7592"><ele>617</ele><time>2016-07-01T14:40:08Z</time></trkpt>
<trkpt lat="46.48704" lon="6.75909"><ele>612.6</ele><time>2016-07-01T14:40:14Z</time></trkpt>
<trkpt lat="46.48713" lon="6.75885"><ele>606.2</ele><time>2016-07-01T14:40:23Z</time></trkpt>
<trkpt lat="46.48715" lon="6.75874"><ele>604.4</ele><time>2016-07-01T14:40:27Z</time></trkpt>
<trkpt lat="46.48721" lon="6.75833"><ele>597.6</ele><time>2016-07-01T14:40:39Z</time></trkpt>
<trkpt lat="46.48727" lon="6.75824"><ele>595.2</ele><time>2016-07-01T14:40:42Z</time></trkpt>
<trkpt lat="46.48729" lon="6.75821"><ele>594.8</ele><time>2016-07-01T14:40:44Z</time></trkpt>
<trkpt lat="46.48732" lon="6.75813"><ele>593.6</ele><time>2016-07-01T14:40:48Z</time></trkpt>
<trkpt lat="46.48736" lon="6.75806"><ele>592.6</ele><time>2016-07-01T14:40:53Z</time></trkpt>
<trkpt lat="46.48739" lon="6.75799"><ele>590.8</ele><time>2016-07-01T14:41:00Z</time></trkpt>
<trkpt lat="46.4874" lon="6.75798"><ele>590.4</ele><time>2016-07-01T14:41:01Z</time></trkpt>
<trkpt lat="46.4874" lon="6.75794"><ele>590</ele><time>2016-07-01T14:41:05Z</time></trkpt>
<trkpt lat="46.48748" lon="6.75766"><ele>590.4</ele><time>2016-07-01T14:41:17Z</time></trkpt>
<trkpt lat="46.48753" lon="6.75752"><ele>589.4</ele><time>2016-07-01T14:41:23Z</time></trkpt>
<trkpt lat="46.48758" lon="6.75743"><ele>588.4</ele><time>2016-07-01T14:41:27Z</time></trkpt>
<trkpt lat="46.48764" lon="6.75728"><ele>587.8</ele><time>2016-07-01T14:41:34Z</time></trkpt>
<trkpt lat="46.48764" lon="6.75715"><ele>587.4</ele><time>2016-07-01T14:41:40Z</time></trkpt>
<trkpt lat="46.48771" lon="6.75708"><ele>587.8</ele><time>2016-07-01T14:41:49Z</time></trkpt>
<trkpt lat="46.48771" lon="6.75708"><ele>587.8</ele><time>2016-07-01T14:41:50Z</time></trkpt>
<trkpt lat="46.48768" lon="6.75706"><ele>586.2</ele><time>2016-07-01T14:42:08Z</time></trkpt>
<trkpt lat="46.48765" lon="6.75698"><ele>585</ele><time>2016-07-01T14:42:12Z</time></trkpt>
<trkpt lat="46.48765" lon="6.75697"><ele>585</ele><time>2016-07-01T14:42:13Z</time></trkpt>
<trkpt lat="46.48764" lon="6.75697"><ele>584.8</ele><time>2016-07-01T14:42:19Z</time></trkpt>
<trkpt lat="46.48764" lon="6.75698"><ele>583.8</ele><time>2016-07-01T14:42:36Z</time></trkpt>
<trkpt lat="46.48763" lon="6.75699"><ele>583.6</ele><time>2016-07-01T14:42:43Z</time></trkpt>
<trkpt lat="46.48763" lon="6.75697"><ele>582.4</ele><time>2016-07-01T14:42:54Z</time></trkpt>
<trkpt lat="46.48763" lon="6.75697"><ele>582.2</ele><time>2016-07-01T14:42:55Z</time></trkpt>
<trkpt lat="46.48763" lon="6.75699"><ele>582.2</ele><time>2016-07-01T14:43:01Z</time></trkpt>
<trkpt lat="46.48762" lon="6.75697"><ele>581.4</ele><time>2016-07-01T14:43:09Z</time></trkpt>
<trkpt lat="46.48767" lon="6.75696"><ele>580.4</ele><time>2016-07-01T14:43:34Z</time></trkpt>
<trkpt lat="46.48766" lon="6.757"><ele>580.4</ele><time>2016-07-01T14:43:37Z</time></trkpt>
<trkpt lat="46.48765" lon="6.75702"><ele>580.4</ele><time>2016-07-01T14:43:39Z</time></trkpt>
<trkpt lat="46.48751" lon="6.75717"><ele>580.8</ele><time>2016-07-01T14:43:50Z</time></trkpt>
<trkpt lat="46.48734" lon="6.75727"><ele>580.6</ele><time>2016-07-01T14:43:56Z</time></trkpt>
<trkpt lat="46.48709" lon="6.75747"><ele>578.4</ele><time>2016-07-01T14:44:05Z</time></trkpt>
<trkpt lat="46.48691" lon="6.75755"><ele>573.2</ele><time>2016-07-01T14:44:11Z</time></trkpt>
<trkpt lat="46.48672" lon="6.75765"><ele>567.8</ele><time>2016-07-01T14:44:17Z</time></trkpt>
<trkpt lat="46.48655" lon="6.75775"><ele>563.8</ele><time>2016-07-01T14:44:22Z</time></trkpt>
<trkpt lat="46.4864" lon="6.75783"><ele>560.2</ele><time>2016-07-01T14:44:26Z</time></trkpt>
<trkpt lat="46.48621" lon="6.75795"><ele>553.8</ele><time>2016-07-01T14:44:31Z</time></trkpt>
<trkpt lat="46.48607" lon="6.75803"><ele>550.8</ele><time>2016-07-01T14:44:34Z</time></trkpt>
<trkpt lat="46.48591" lon="6.75815"><ele>545.6</ele><time>2016-07-01T14:44:39Z</time></trkpt>
<trkpt lat="46.48573" lon="6.75828"><ele>538</ele><time>2016-07-01T14:44:44Z</time></trkpt>
<trkpt lat="46.48553" lon="6.75842"><ele>530.8</ele><time>2016-07-01T14:44:49Z</time></trkpt>
<trkpt lat="46.48535" lon="6.7585"><ele>526.8</ele><time>2016-07-01T14:44:53Z</time></trkpt>
<trkpt lat="46.48518" lon="6.75859"><ele>522.8</ele><time>2016-07-01T14:44:58Z</time></trkpt>
<trkpt lat="46.48492" lon="6.75872"><ele>515.4</ele><time>2016-07-01T14:45:05Z</time></trkpt>
<trkpt lat="46.48481" lon="6.75881"><ele>511</ele><time>2016-07-01T14:45:09Z</time></trkpt>
<trkpt lat="46.48474" lon="6.7589"><ele>508.8</ele><time>2016-07-01T14:45:12Z</time></trkpt>
<trkpt lat="46.48464" lon="6.75903"><ele>507.2</ele><time>2016-07-01T14:45:21Z</time></trkpt>
<trkpt lat="46.48464" lon="6.75903"><ele>507.6</ele><time>2016-07-01T14:45:22Z</time></trkpt>
<trkpt lat="46.48466" lon="6.75902"><ele>507.4</ele><time>2016-07-01T14:45:33Z</time></trkpt>
<trkpt lat="46.48478" lon="6.75878"><ele>507</ele><time>2016-07-01T14:45:43Z</time></trkpt>
<trkpt lat="46.48494" lon="6.75851"><ele>504.8</ele><time>2016-07-01T14:45:47Z</time></trkpt>
<trkpt lat="46.4851" lon="6.75824"><ele>503.2</ele><time>2016-07-01T14:45:50Z</time></trkpt>
<trkpt lat="46.48522" lon="6.75805"><ele>502</ele><time>2016-07-01T14:45:52Z</time></trkpt>
<trkpt lat="46.48534" lon="6.75783"><ele>500.8</ele><time>2016-07-01T14:45:54Z</time></trkpt>
<trkpt lat="46.48548" lon="6.75761"><ele>499.6</ele><time>2016-07-01T14:45:56Z</time></trkpt>
<trkpt lat="46.48562" lon="6.75737"><ele>498.2</ele><time>2016-07-01T14:45:58Z</time></trkpt>
<trkpt lat="46.48576" lon="6.75713"><ele>496.8</ele><time>2016-07-01T14:46:00Z</time></trkpt>
<trkpt lat="46.48591" lon="6.75688"><ele>495.4</ele><time>2016-07-01T14:46:02Z</time></trkpt>
<trkpt lat="46.48606" lon="6.75661"><ele>493.8</ele><time>2016-07-01T14:46:04Z</time></trkpt>
<trkpt lat="46.48621" lon="6.75634"><ele>492.2</ele><time>2016-07-01T14:46:06Z</time></trkpt>
<trkpt lat="46.48635" lon="6.75607"><ele>491</ele><time>2016-07-01T14:46:08Z</time></trkpt>
<trkpt lat="46.4865" lon="6.75581"><ele>489.4</ele><time>2016-07-01T14:46:10Z</time></trkpt>
<trkpt lat="46.48665" lon="6.75557"><ele>488.2</ele><time>2016-07-01T14:46:12Z</time></trkpt>
<trkpt lat="46.48681" lon="6.75533"><ele>486.8</ele><time>2016-07-01T14:46:14Z</time></trkpt>
<trkpt lat="46.48698" lon="6.75512"><ele>486.2</ele><time>2016-07-01T14:46:16Z</time></trkpt>
<trkpt lat="46.48714" lon="6.75492"><ele>485.4</ele><time>2016-07-01T14:46:18Z</time></trkpt>
<trkpt lat="46.48731" lon="6.75472"><ele>484.8</ele><time>2016-07-01T14:46:20Z</time></trkpt>
<trkpt lat="46.48748" lon="6.75453"><ele>484.6</ele><time>2016-07-01T14:46:22Z</time></trkpt>
<trkpt lat="46.48763" lon="6.75434"><ele>484</ele><time>2016-07-01T14:46:24Z</time></trkpt>
<trkpt lat="46.48776" lon="6.75413"><ele>484</ele><time>2016-07-01T14:46:26Z</time></trkpt>
<trkpt lat="46.48789" lon="6.7539"><ele>483</ele><time>2016-07-01T14:46:28Z</time></trkpt>
<trkpt lat="46.48801" lon="6.75366"><ele>481.8</ele><time>2016-07-01T14:46:30Z</time></trkpt>
<trkpt lat="46.48814" lon="6.75342"><ele>481.2</ele><time>2016-07-01T14:46:32Z</time></trkpt>
<trkpt lat="46.48826" lon="6.75317"><ele>480.4</ele><time>2016-07-01T14:46:34Z</time></trkpt>
<trkpt lat="46.48838" lon="6.75292"><ele>479.6</ele><time>2016-07-01T14:46:36Z</time></trkpt>
<trkpt lat="46.48851" lon="6.75268"><ele>479.4</ele><time>2016-07-01T14:46:38Z</time></trkpt>
<trkpt lat="46.48865" lon="6.75248"><ele>479</ele><time>2016-07-01T14:46:40Z</time></trkpt>
<trkpt lat="46.48879" lon="6.7523"><ele>478.6</ele><time>2016-07-01T14:46:42Z</time></trkpt>
<trkpt lat="46.48895" lon="6.75214"><ele>478</ele><time>2016-07-01T14:46:44Z</time></trkpt>
<trkpt lat="46.48911" lon="6.75201"><ele>477.6</ele><time>2016-07-01T14:46:46Z</time></trkpt>
<trkpt lat="46.48927" lon="6.75188"><ele>475.8</ele><time>2016-07-01T14:46:48Z</time></trkpt>
<trkpt lat="46.48939" lon="6.75167"><ele>474.6</ele><time>2016-07-01T14:46:50Z</time></trkpt>
<trkpt lat="46.48941" lon="6.75153"><ele>474.2</ele><time>2016-07-01T14:46:51Z</time></trkpt>
<trkpt lat="46.48943" lon="6.75125"><ele>473</ele><time>2016-07-01T14:46:53Z</time></trkpt>
<trkpt lat="46.48944" lon="6.75111"><ele>472.4</ele><time>2016-07-01T14:46:54Z</time></trkpt>
<trkpt lat="46.48945" lon="6.75096"><ele>471.8</ele><time>2016-07-01T14:46:55Z</time></trkpt>
<trkpt lat="46.48951" lon="6.75069"><ele>470.6</ele><time>2016-07-01T14:46:57Z</time></trkpt>
<trkpt lat="46.48962" lon="6.75046"><ele>470.2</ele><time>2016-07-01T14:46:59Z</time></trkpt>
<trkpt lat="46.48968" lon="6.75036"><ele>470</ele><time>2016-07-01T14:47:00Z</time></trkpt>
<trkpt lat="46.48987" lon="6.75014"><ele>469.2</ele><time>2016-07-01T14:47:03Z</time></trkpt>
<trkpt lat="46.49001" lon="6.74998"><ele>469</ele><time>2016-07-01T14:47:06Z</time></trkpt>
<trkpt lat="46.49012" lon="6.74973"><ele>468</ele><time>2016-07-01T14:47:11Z</time></trkpt>
<trkpt lat="46.49016" lon="6.74953"><ele>467</ele><time>2016-07-01T14:47:15Z</time></trkpt>
<trkpt lat="46.4902" lon="6.7494"><ele>467</ele><time>2016-07-01T14:47:19Z</time></trkpt>
<trkpt lat="46.49021" lon="6.74936"><ele>466.6</ele><time>2016-07-01T14:47:21Z</time></trkpt>
<trkpt lat="46.49023" lon="6.74934"><ele>466.4</ele><time>2016-07-01T14:47:24Z</time></trkpt>
<trkpt lat="46.49023" lon="6.74933"><ele>466.4</ele><time>2016-07-01T14:47:25Z</time></trkpt>
<trkpt lat="46.49024" lon="6.74932"><ele>466</ele><time>2016-07-01T14:47:27Z</time></trkpt>
<trkpt lat="46.49024" lon="6.7493"><ele>465.8</ele><time>2016-07-01T14:47:30Z</time></trkpt>
<trkpt lat="46.49025" lon="6.74926"><ele>465.6</ele><time>2016-07-01T14:47:46Z</time></trkpt>
<trkpt lat="46.49024" lon="6.74925"><ele>465.2</ele><time>2016-07-01T14:47:59Z</time></trkpt>
<trkpt lat="46.49028" lon="6.749"><ele>466</ele><time>2016-07-01T14:48:15Z</time></trkpt>
<trkpt lat="46.49043" lon="6.74876"><ele>465.4</ele><time>2016-07-01T14:48:21Z</time></trkpt>
<trkpt lat="46.49064" lon="6.74866"><ele>464.2</ele><time>2016-07-01T14:48:26Z</time></trkpt>
<trkpt lat="46.49074" lon="6.74856"><ele>463.4</ele><time>2016-07-01T14:48:28Z</time></trkpt>
<trkpt lat="46.49093" lon="6.74842"><ele>462.6</ele><time>2016-07-01T14:48:31Z</time></trkpt>
<trkpt lat="46.4911" lon="6.74827"><ele>461.6</ele><time>2016-07-01T14:48:34Z</time></trkpt>
<trkpt lat="46.49125" lon="6.74813"><ele>460.4</ele><time>2016-07-01T14:48:37Z</time></trkpt>
<trkpt lat="46.4913" lon="6.74807"><ele>460.2</ele><time>2016-07-01T14:48:38Z</time></trkpt>
<trkpt lat="46.49144" lon="6.74787"><ele>458.8</ele><time>2016-07-01T14:48:41Z</time></trkpt>
<trkpt lat="46.49156" lon="6.74768"><ele>456.8</ele><time>2016-07-01T14:48:44Z</time></trkpt>
<trkpt lat="46.49165" lon="6.74745"><ele>455.4</ele><time>2016-07-01T14:48:47Z</time></trkpt>
<trkpt lat="46.49176" lon="6.74717"><ele>454.8</ele><time>2016-07-01T14:48:51Z</time></trkpt>
<trkpt lat="46.49181" lon="6.74685"><ele>453.6</ele><time>2016-07-01T14:48:55Z</time></trkpt>
<trkpt lat="46.49185" lon="6.74657"><ele>456</ele><time>2016-07-01T14:48:58Z</time></trkpt>
<trkpt lat="46.49188" lon="6.74629"><ele>456.4</ele><time>2016-07-01T14:49:01Z</time></trkpt>
<trkpt lat="46.49191" lon="6.74603"><ele>457.2</ele><time>2016-07-01T14:49:04Z</time></trkpt>
<trkpt lat="46.49196" lon="6.74577"><ele>457.2</ele><time>2016-07-01T14:49:07Z</time></trkpt>
<trkpt lat="46.49199" lon="6.74569"><ele>457.4</ele><time>2016-07-01T14:49:08Z</time></trkpt>
<trkpt lat="46.49205" lon="6.74555"><ele>458.2</ele><time>2016-07-01T14:49:10Z</time></trkpt>
<trkpt lat="46.49214" lon="6.74543"><ele>458.6</ele><time>2016-07-01T14:49:12Z</time></trkpt>
<trkpt lat="46.49231" lon="6.74527"><ele>460.4</ele><time>2016-07-01T14:49:16Z</time></trkpt>
<trkpt lat="46.49244" lon="6.74513"><ele>460.2</ele><time>2016-07-01T14:49:19Z</time></trkpt>
<trkpt lat="46.49256" lon="6.74486"><ele>460.6</ele><time>2016-07-01T14:49:23Z</time></trkpt>
<trkpt lat="46.49248" lon="6.74457"><ele>460.6</ele><time>2016-07-01T14:49:26Z</time></trkpt>
<trkpt lat="46.49241" lon="6.74442"><ele>460.8</ele><time>2016-07-01T14:49:28Z</time></trkpt>
<trkpt lat="46.49233" lon="6.74421"><ele>460.8</ele><time>2016-07-01T14:49:31Z</time></trkpt>
<trkpt lat="46.4923" lon="6.74402"><ele>460</ele><time>2016-07-01T14:49:34Z</time></trkpt>
<trkpt lat="46.49228" lon="6.74395"><ele>459.4</ele><time>2016-07-01T14:49:35Z</time></trkpt>
<trkpt lat="46.49228" lon="6.74387"><ele>459.4</ele><time>2016-07-01T14:49:36Z</time></trkpt>
<trkpt lat="46.49229" lon="6.74365"><ele>459.2</ele><time>2016-07-01T14:49:39Z</time></trkpt>
<trkpt lat="46.49234" lon="6.74349"><ele>459.8</ele><time>2016-07-01T14:49:41Z</time></trkpt>
<trkpt lat="46.49242" lon="6.74332"><ele>461.2</ele><time>2016-07-01T14:49:43Z</time></trkpt>
<trkpt lat="46.49256" lon="6.74307"><ele>462</ele><time>2016-07-01T14:49:46Z</time></trkpt>
<trkpt lat="46.49259" lon="6.74298"><ele>462</ele><time>2016-07-01T14:49:47Z</time></trkpt>
<trkpt lat="46.49262" lon="6.74264"><ele>461.4</ele><time>2016-07-01T14:49:50Z</time></trkpt>
<trkpt lat="46.49258" lon="6.74229"><ele>459.4</ele><time>2016-07-01T14:49:53Z</time></trkpt>
<trkpt lat="46.49255" lon="6.74204"><ele>458.8</ele><time>2016-07-01T14:49:55Z</time></trkpt>
<trkpt lat="46.49258" lon="6.74167"><ele>457.8</ele><time>2016-07-01T14:49:58Z</time></trkpt>
<trkpt lat="46.49263" lon="6.74144"><ele>457</ele><time>2016-07-01T14:50:00Z</time></trkpt>
<trkpt lat="46.49271" lon="6.74108"><ele>456</ele><time>2016-07-01T14:50:03Z</time></trkpt>
<trkpt lat="46.49278" lon="6.74073"><ele>455.4</ele><time>2016-07-01T14:50:06Z</time></trkpt>
<trkpt lat="46.49281" lon="6.74061"><ele>455.2</ele><time>2016-07-01T14:50:07Z</time></trkpt>
<trkpt lat="46.49286" lon="6.74024"><ele>454</ele><time>2016-07-01T14:50:10Z</time></trkpt>
<trkpt lat="46.49286" lon="6.7401"><ele>453.4</ele><time>2016-07-01T14:50:11Z</time></trkpt>
<trkpt lat="46.49284" lon="6.73983"><ele>452.8</ele><time>2016-07-01T14:50:13Z</time></trkpt>
<trkpt lat="46.49282" lon="6.73955"><ele>451.8</ele><time>2016-07-01T14:50:15Z</time></trkpt>
<trkpt lat="46.4928" lon="6.73928"><ele>451</ele><time>2016-07-01T14:50:17Z</time></trkpt>
<trkpt lat="46.4928" lon="6.73899"><ele>449.8</ele><time>2016-07-01T14:50:19Z</time></trkpt>
<trkpt lat="46.49281" lon="6.73885"><ele>449.2</ele><time>2016-07-01T14:50:20Z</time></trkpt>
<trkpt lat="46.49286" lon="6.73857"><ele>448.4</ele><time>2016-07-01T14:50:22Z</time></trkpt>
<trkpt lat="46.49292" lon="6.7383"><ele>448</ele><time>2016-07-01T14:50:24Z</time></trkpt>
<trkpt lat="46.493" lon="6.73805"><ele>447.6</ele><time>2016-07-01T14:50:26Z</time></trkpt>
<trkpt lat="46.49313" lon="6.73772"><ele>447.2</ele><time>2016-07-01T14:50:29Z</time></trkpt>
<trkpt lat="46.49324" lon="6.7374"><ele>447</ele><time>2016-07-01T14:50:32Z</time></trkpt>
<trkpt lat="46.49329" lon="6.73719"><ele>447.2</ele><time>2016-07-01T14:50:34Z</time></trkpt>
<trkpt lat="46.49331" lon="6.73697"><ele>447.2</ele><time>2016-07-01T14:50:36Z</time></trkpt>
<trkpt lat="46.49333" lon="6.73666"><ele>447.2</ele><time>2016-07-01T14:50:39Z</time></trkpt>
<trkpt lat="46.49335" lon="6.73637"><ele>447.4</ele><time>2016-07-01T14:50:42Z</time></trkpt>
<trkpt lat="46.49338" lon="6.73608"><ele>447.2</ele><time>2016-07-01T14:50:45Z</time></trkpt>
<trkpt lat="46.49342" lon="6.73581"><ele>446.4</ele><time>2016-07-01T14:50:48Z</time></trkpt>
<trkpt lat="46.49343" lon="6.73572"><ele>445.6</ele><time>2016-07-01T14:50:49Z</time></trkpt>
<trkpt lat="46.49341" lon="6.73544"><ele>443.4</ele><time>2016-07-01T14:50:52Z</time></trkpt>
<trkpt lat="46.49341" lon="6.73524"><ele>442.2</ele><time>2016-07-01T14:50:54Z</time></trkpt>
<trkpt lat="46.49341" lon="6.73513"><ele>441</ele><time>2016-07-01T14:50:55Z</time></trkpt>
<trkpt lat="46.49342" lon="6.73501"><ele>440.2</ele><time>2016-07-01T14:50:56Z</time></trkpt>
<trkpt lat="46.49345" lon="6.7348"><ele>438.2</ele><time>2016-07-01T14:50:58Z</time></trkpt>
<trkpt lat="46.49357" lon="6.73456"><ele>436.6</ele><time>2016-07-01T14:51:01Z</time></trkpt>
<trkpt lat="46.49361" lon="6.73449"><ele>437.6</ele><time>2016-07-01T14:51:02Z</time></trkpt>
<trkpt lat="46.49365" lon="6.73443"><ele>437</ele><time>2016-07-01T14:51:03Z</time></trkpt>
<trkpt lat="46.49372" lon="6.73429"><ele>436.8</ele><time>2016-07-01T14:51:05Z</time></trkpt>
<trkpt lat="46.49365" lon="6.73398"><ele>436.4</ele><time>2016-07-01T14:51:09Z</time></trkpt>
<trkpt lat="46.4936" lon="6.73391"><ele>436.2</ele><time>2016-07-01T14:51:10Z</time></trkpt>
<trkpt lat="46.49341" lon="6.73378"><ele>435.2</ele><time>2016-07-01T14:51:13Z</time></trkpt>
<trkpt lat="46.49334" lon="6.73374"><ele>434.6</ele><time>2016-07-01T14:51:14Z</time></trkpt>
<trkpt lat="46.49311" lon="6.73364"><ele>433</ele><time>2016-07-01T14:51:17Z</time></trkpt>
<trkpt lat="46.49286" lon="6.7335"><ele>429.8</ele><time>2016-07-01T14:51:20Z</time></trkpt>
<trkpt lat="46.49277" lon="6.73344"><ele>429.2</ele><time>2016-07-01T14:51:21Z</time></trkpt>
<trkpt lat="46.49262" lon="6.73328"><ele>428</ele><time>2016-07-01T14:51:23Z</time></trkpt>
<trkpt lat="46.49249" lon="6.73308"><ele>427</ele><time>2016-07-01T14:51:25Z</time></trkpt>
<trkpt lat="46.49243" lon="6.73296"><ele>426</ele><time>2016-07-01T14:51:26Z</time></trkpt>
<trkpt lat="46.49231" lon="6.73273"><ele>424.2</ele><time>2016-07-01T14:51:28Z</time></trkpt>
<trkpt lat="46.4922" lon="6.73251"><ele>423</ele><time>2016-07-01T14:51:30Z</time></trkpt>
<trkpt lat="46.49214" lon="6.7324"><ele>422.4</ele><time>2016-07-01T14:51:31Z</time></trkpt>
<trkpt lat="46.49199" lon="6.7322"><ele>421.4</ele><time>2016-07-01T14:51:33Z</time></trkpt>
<trkpt lat="46.49184" lon="6.73201"><ele>419.8</ele><time>2016-07-01T14:51:35Z</time></trkpt>
<trkpt lat="46.49168" lon="6.73182"><ele>418.6</ele><time>2016-07-01T14:51:37Z</time></trkpt>
<trkpt lat="46.49156" lon="6.73157"><ele>417.2</ele><time>2016-07-01T14:51:39Z</time></trkpt>
<trkpt lat="46.49147" lon="6.73128"><ele>416</ele><time>2016-07-01T14:51:41Z</time></trkpt>
<trkpt lat="46.49144" lon="6.73113"><ele>415.6</ele><time>2016-07-01T14:51:42Z</time></trkpt>
<trkpt lat="46.49138" lon="6.73083"><ele>414.4</ele><time>2016-07-01T14:51:44Z</time></trkpt>
<trkpt lat="46.4913" lon="6.73055"><ele>413.2</ele><time>2016-07-01T14:51:46Z</time></trkpt>
<trkpt lat="46.49117" lon="6.73031"><ele>412</ele><time>2016-07-01T14:51:48Z</time></trkpt>
<trkpt lat="46.49101" lon="6.73012"><ele>410.4</ele><time>2016-07-01T14:51:50Z</time></trkpt>
<trkpt lat="46.49082" lon="6.72996"><ele>409</ele><time>2016-07-01T14:51:52Z</time></trkpt>
<trkpt lat="46.49063" lon="6.72982"><ele>407.6</ele><time>2016-07-01T14:51:54Z</time></trkpt>
<trkpt lat="46.49045" lon="6.72968"><ele>406.6</ele><time>2016-07-01T14:51:56Z</time></trkpt>
<trkpt lat="46.49026" lon="6.72954"><ele>405.4</ele><time>2016-07-01T14:51:58Z</time></trkpt>
<trkpt lat="46.49009" lon="6.72939"><ele>404.2</ele><time>2016-07-01T14:52:00Z</time></trkpt>
<trkpt lat="46.48992" lon="6.72922"><ele>402.8</ele><time>2016-07-01T14:52:02Z</time></trkpt>
<trkpt lat="46.48984" lon="6.72912"><ele>402</ele><time>2016-07-01T14:52:03Z</time></trkpt>
<trkpt lat="46.48971" lon="6.72887"><ele>400.6</ele><time>2016-07-01T14:52:05Z</time></trkpt>
<trkpt lat="46.48962" lon="6.7286"><ele>399.2</ele><time>2016-07-01T14:52:07Z</time></trkpt>
<trkpt lat="46.48956" lon="6.7283"><ele>398</ele><time>2016-07-01T14:52:09Z</time></trkpt>
<trkpt lat="46.48954" lon="6.72815"><ele>397.2</ele><time>2016-07-01T14:52:10Z</time></trkpt>
<trkpt lat="46.4895" lon="6.72785"><ele>396</ele><time>2016-07-01T14:52:12Z</time></trkpt>
<trkpt lat="46.48946" lon="6.72754"><ele>394.6</ele><time>2016-07-01T14:52:14Z</time></trkpt>
<trkpt lat="46.48942" lon="6.72725"><ele>393.4</ele><time>2016-07-01T14:52:16Z</time></trkpt>
<trkpt lat="46.48936" lon="6.7269"><ele>392</ele><time>2016-07-01T14:52:19Z</time></trkpt>
<trkpt lat="46.48924" lon="6.72676"><ele>391.6</ele><time>2016-07-01T14:52:24Z</time></trkpt>
<trkpt lat="46.48909" lon="6.72668"><ele>391.2</ele><time>2016-07-01T14:52:29Z</time></trkpt>
<trkpt lat="46.48891" lon="6.72676"><ele>391.4</ele><time>2016-07-01T14:52:34Z</time></trkpt>
<trkpt lat="46.48876" lon="6.72675"><ele>391.8</ele><time>2016-07-01T14:52:38Z</time></trkpt>
<trkpt lat="46.4886" lon="6.72649"><ele>393.2</ele><time>2016-07-01T14:52:44Z</time></trkpt>
<trkpt lat="46.48863" lon="6.72623"><ele>393.8</ele><time>2016-07-01T14:52:48Z</time></trkpt>
<trkpt lat="46.48857" lon="6.72598"><ele>393.6</ele><time>2016-07-01T14:52:52Z</time></trkpt>
<trkpt lat="46.48853" lon="6.72586"><ele>393.4</ele><time>2016-07-01T14:52:54Z</time></trkpt>
<trkpt lat="46.48847" lon="6.72565"><ele>393.4</ele><time>2016-07-01T14:52:58Z</time></trkpt>
<trkpt lat="46.48845" lon="6.72554"><ele>393.4</ele><time>2016-07-01T14:53:01Z</time></trkpt>
<trkpt lat="46.48837" lon="6.72539"><ele>393</ele><time>2016-07-01T14:53:06Z</time></trkpt>
<trkpt lat="46.48834" lon="6.72538"><ele>393.2</ele><time>2016-07-01T14:53:11Z</time></trkpt>
<trkpt lat="46.48836" lon="6.72539"><ele>393.4</ele><time>2016-07-01T14:53:26Z</time></trkpt>
<trkpt lat="46.48838" lon="6.72541"><ele>393.2</ele><time>2016-07-01T14:53:35Z</time></trkpt>
<trkpt lat="46.48837" lon="6.7254"><ele>393.2</ele><time>2016-07-01T14:53:38Z</time></trkpt>
<trkpt lat="46.48837" lon="6.7254"><ele>393.2</ele><time>2016-07-01T14:53:39Z</time></trkpt>
</trkseg></trk></gpx>